Observation data for JA Ranch on 11/10/2019      Previous  Date       Current Mesonet Observations  Soil Data  Daily Summary Page  Observations in Plain Language
KPD3 100600Z 23003KT 11/04 A3007 RMK A01 T01080041  RH  063%=      5-min Rain = 0
KPD3 100601Z 24003KT 11/04 A3007 RMK A01 T01110040  RH  061%=      5-min Rain = 0
KPD3 100602Z 23003KT 11/04 A3007 RMK A01 T01130040  RH  061%=      5-min Rain = 0
KPD3 100603Z 23003KT 11/04 A3007 RMK A01 T01140040  RH  060%=      5-min Rain = 0
KPD3 100604Z 24003KT 12/04 A3007 RMK A01 T01150040  RH  060%=      5-min Rain = 0
KPD3 100605Z 23004KT 12/04 A3007 RMK A01 T01160040  RH  059%=      5-min Rain = 0
KPD3 100606Z 23004KT 12/04 A3007 RMK A01 T01170039  RH  059%=      5-min Rain = 0
KPD3 100607Z 23004KT 12/04 A3007 RMK A01 T01190040  RH  058%=      5-min Rain = 0
KPD3 100608Z 23005KT 12/04 A3007 RMK A01 T01200040  RH  058%=      5-min Rain = 0
KPD3 100609Z 23004KT 12/04 A3007 RMK A01 T01190039  RH  058%=      5-min Rain = 0
KPD3 100610Z 22004KT 12/04 A3007 RMK A01 T01180038  RH  058%=      5-min Rain = 0
KPD3 100611Z 22005KT 11/03 A3007 RMK A01 T01120032  RH  058%=      5-min Rain = 0
KPD3 100612Z 21004KT 11/03 A3007 RMK A01 T01050032  RH  061%=      5-min Rain = 0
KPD3 100613Z 21003KT 10/03 A3007 RMK A01 T01000032  RH  063%=      5-min Rain = 0
KPD3 100614Z 20003KT 10/03 A3007 RMK A01 T00970032  RH  064%=      5-min Rain = 0
KPD3 100615Z 21003KT 09/03 A3007 RMK A01 T00930032  RH  066%=      5-min Rain = 0
KPD3 100616Z 21003KT 10/04 A3007 RMK A01 T00950036  RH  067%=      5-min Rain = 0
KPD3 100617Z 21002KT 10/04 A3007 RMK A01 T00970035  RH  066%=      5-min Rain = 0
KPD3 100618Z 20002KT 10/04 A3007 RMK A01 T00980037  RH  066%=      5-min Rain = 0
KPD3 100619Z 20003KT 10/04 A3006 RMK A01 T01000037  RH  065%=      5-min Rain = 0
KPD3 100620Z 20003KT 10/04 A3006 RMK A01 T01010037  RH  064%=      5-min Rain = 0
KPD3 100621Z 20003KT 10/04 A3006 RMK A01 T01010037  RH  064%=      5-min Rain = 0
KPD3 100622Z 21003KT 10/04 A3006 RMK A01 T01020037  RH  064%=      5-min Rain = 0
KPD3 100623Z 21003KT 10/04 A3006 RMK A01 T01030037  RH  064%=      5-min Rain = 0
KPD3 100624Z 22003KT 10/04 A3006 RMK A01 T01020038  RH  064%=      5-min Rain = 0
KPD3 100625Z 22003KT 10/04 A3006 RMK A01 T01030039  RH  065%=      5-min Rain = 0
KPD3 100626Z 23003KT 10/04 A3006 RMK A01 T01040039  RH  064%=      5-min Rain = 0
KPD3 100627Z 22003KT 10/04 A3006 RMK A01 T01040039  RH  064%=      5-min Rain = 0
KPD3 100628Z 22003KT 10/04 A3006 RMK A01 T01040041  RH  065%=      5-min Rain = 0
KPD3 100629Z 22003KT 11/04 A3006 RMK A01 T01060041  RH  064%=      5-min Rain = 0
KPD3 100630Z 21003KT 11/04 A3006 RMK A01 T01070040  RH  064%=      5-min Rain = 0
KPD3 100631Z 21002KT 11/04 A3006 RMK A01 T01060038  RH  062%=      5-min Rain = 0
KPD3 100632Z 20002KT 10/03 A3006 RMK A01 T01020033  RH  062%=      5-min Rain = 0
KPD3 100633Z 18001KT 09/02 A3006 RMK A01 T00900022  RH  063%=      5-min Rain = 0
KPD3 100634Z 16002KT 08/02 A3006 RMK A01 T00770021  RH  068%=      5-min Rain = 0
KPD3 100635Z 17002KT 07/02 A3006 RMK A01 T00720023  RH  071%=      5-min Rain = 0
KPD3 100636Z 17001KT 07/02 A3006 RMK A01 T00670021  RH  072%=      5-min Rain = 0
KPD3 100637Z 16002KT 06/02 A3006 RMK A01 T00640024  RH  075%=      5-min Rain = 0
KPD3 100638Z 17002KT 07/03 A3006 RMK A01 T00650026  RH  077%=      5-min Rain = 0
KPD3 100639Z 17002KT 07/03 A3006 RMK A01 T00660028  RH  076%=      5-min Rain = 0
KPD3 100640Z 16002KT 07/03 A3006 RMK A01 T00660025  RH  075%=      5-min Rain = 0
KPD3 100641Z 16002KT 06/02 A3006 RMK A01 T00630023  RH  076%=      5-min Rain = 0
KPD3 100642Z 18002KT 06/03 A3006 RMK A01 T00620026  RH  078%=      5-min Rain = 0
KPD3 100643Z 17002KT 06/03 A3006 RMK A01 T00620026  RH  078%=      5-min Rain = 0
KPD3 100644Z 18002KT 06/03 A3006 RMK A01 T00620026  RH  078%=      5-min Rain = 0
KPD3 100645Z 18002KT 06/03 A3006 RMK A01 T00620027  RH  078%=      5-min Rain = 0
KPD3 100646Z 19002KT 06/03 A3006 RMK A01 T00620027  RH  078%=      5-min Rain = 0
KPD3 100647Z 20002KT 06/03 A3006 RMK A01 T00620026  RH  078%=      5-min Rain = 0
KPD3 100648Z 21002KT 06/03 A3006 RMK A01 T00620027  RH  079%=      5-min Rain = 0
KPD3 100649Z 21002KT 06/03 A3006 RMK A01 T00630029  RH  079%=      5-min Rain = 0
KPD3 100650Z 20002KT 06/03 A3006 RMK A01 T00640030  RH  079%=      5-min Rain = 0
KPD3 100651Z 21002KT 07/03 A3006 RMK A01 T00650031  RH  079%=      5-min Rain = 0
KPD3 100652Z 21002KT 07/03 A3006 RMK A01 T00660031  RH  078%=      5-min Rain = 0
KPD3 100653Z 20003KT 07/03 A3006 RMK A01 T00670031  RH  078%=      5-min Rain = 0
KPD3 100654Z 19003KT 07/03 A3006 RMK A01 T00690033  RH  078%=      5-min Rain = 0
KPD3 100655Z 19003KT 07/03 A3006 RMK A01 T00710033  RH  077%=      5-min Rain = 0
KPD3 100656Z 19002KT 07/03 A3006 RMK A01 T00730034  RH  076%=      5-min Rain = 0
KPD3 100657Z 20002KT 07/04 A3006 RMK A01 T00740035  RH  076%=      5-min Rain = 0
KPD3 100658Z 21002KT 08/04 A3006 RMK A01 T00750036  RH  076%=      5-min Rain = 0
KPD3 100659Z 21002KT 08/04 A3006 RMK A01 T00770040  RH  077%=      5-min Rain = 0
KPD3 100700Z 21002KT 08/04 A3006 RMK A01 T00800044  RH  078%=      5-min Rain = 0
KPD3 100701Z 21002KT 08/05 A3006 RMK A01 T00840046  RH  077%=      5-min Rain = 0
KPD3 100702Z 21003KT 09/05 A3006 RMK A01 T00870048  RH  076%=      5-min Rain = 0
KPD3 100703Z 21003KT 09/05 A3006 RMK A01 T00910048  RH  075%=      5-min Rain = 0
KPD3 100704Z 21003KT 09/05 A3006 RMK A01 T00920046  RH  073%=      5-min Rain = 0
KPD3 100705Z 21002KT 09/04 A3006 RMK A01 T00930043  RH  071%=      5-min Rain = 0
KPD3 100706Z 21003KT 09/05 A3006 RMK A01 T00920046  RH  073%=      5-min Rain = 0
KPD3 100707Z 22003KT 09/05 A3006 RMK A01 T00930047  RH  073%=      5-min Rain = 0
KPD3 100708Z 22003KT 09/05 A3006 RMK A01 T00940047  RH  072%=      5-min Rain = 0
KPD3 100709Z 23003KT 10/05 A3006 RMK A01 T00950047  RH  072%=      5-min Rain = 0
KPD3 100710Z 22004KT 10/05 A3006 RMK A01 T00950046  RH  071%=      5-min Rain = 0
KPD3 100711Z 22005KT 10/05 A3006 RMK A01 T00960045  RH  071%=      5-min Rain = 0
KPD3 100712Z 22006KT 10/05 A3006 RMK A01 T00960045  RH  070%=      5-min Rain = 0
KPD3 100713Z 22006KT 10/05 A3006 RMK A01 T00970045  RH  070%=      5-min Rain = 0
KPD3 100714Z 22006KT 10/05 A3006 RMK A01 T00970045  RH  070%=      5-min Rain = 0
KPD3 100715Z 22006KT 10/05 A3006 RMK A01 T00960045  RH  070%=      5-min Rain = 0
KPD3 100716Z 22006KT 10/04 A3006 RMK A01 T00950044  RH  071%=      5-min Rain = 0
KPD3 100717Z 22006KT 09/04 A3006 RMK A01 T00930044  RH  071%=      5-min Rain = 0
KPD3 100718Z 22005KT 09/04 A3006 RMK A01 T00920044  RH  072%=      5-min Rain = 0
KPD3 100719Z 22005KT 09/04 A3006 RMK A01 T00910044  RH  072%=      5-min Rain = 0
KPD3 100720Z 22005KT 09/04 A3006 RMK A01 T00910044  RH  072%=      5-min Rain = 0
KPD3 100721Z 22005KT 09/04 A3006 RMK A01 T00910043  RH  072%=      5-min Rain = 0
KPD3 100722Z 22005KT 09/04 A3006 RMK A01 T00910043  RH  072%=      5-min Rain = 0
KPD3 100723Z 22005KT 09/04 A3006 RMK A01 T00900043  RH  072%=      5-min Rain = 0
KPD3 100724Z 21005KT 09/04 A3006 RMK A01 T00890042  RH  072%=      5-min Rain = 0
KPD3 100725Z 22005KT 09/04 A3006 RMK A01 T00890042  RH  072%=      5-min Rain = 0
KPD3 100726Z 21005KT 09/04 A3006 RMK A01 T00890042  RH  073%=      5-min Rain = 0
KPD3 100727Z 22005KT 09/04 A3005 RMK A01 T00890043  RH  073%=      5-min Rain = 0
KPD3 100728Z 21005KT 09/04 A3005 RMK A01 T00890043  RH  073%=      5-min Rain = 0
KPD3 100729Z 21005KT 09/04 A3005 RMK A01 T00890042  RH  072%=      5-min Rain = 0
KPD3 100730Z 21004KT 09/04 A3005 RMK A01 T00890042  RH  073%=      5-min Rain = 0
KPD3 100731Z 20004KT 09/04 A3005 RMK A01 T00890043  RH  073%=      5-min Rain = 0
KPD3 100732Z 20005KT 09/04 A3005 RMK A01 T00900044  RH  073%=      5-min Rain = 0
KPD3 100733Z 20005KT 09/04 A3005 RMK A01 T00910044  RH  073%=      5-min Rain = 0
KPD3 100734Z 19004KT 09/04 A3005 RMK A01 T00920044  RH  072%=      5-min Rain = 0
KPD3 100735Z 19004KT 09/05 A3005 RMK A01 T00930045  RH  072%=      5-min Rain = 0
KPD3 100736Z 18003KT 10/05 A3005 RMK A01 T00950046  RH  071%=      5-min Rain = 0
KPD3 100737Z 16003KT 10/05 A3005 RMK A01 T00970045  RH  070%=      5-min Rain = 0
KPD3 100738Z 16003KT 10/04 A3005 RMK A01 T00960043  RH  070%=      5-min Rain = 0
KPD3 100739Z 16003KT 09/04 A3005 RMK A01 T00940043  RH  070%=      5-min Rain = 0
KPD3 100740Z 17003KT 09/04 A3005 RMK A01 T00930043  RH  071%=      5-min Rain = 0
KPD3 100741Z 17002KT 09/04 A3005 RMK A01 T00920043  RH  072%=      5-min Rain = 0
KPD3 100742Z 17003KT 09/04 A3005 RMK A01 T00910043  RH  072%=      5-min Rain = 0
KPD3 100743Z 17003KT 09/04 A3005 RMK A01 T00900043  RH  072%=      5-min Rain = 0
KPD3 100744Z 17003KT 09/04 A3005 RMK A01 T00890042  RH  072%=      5-min Rain = 0
KPD3 100745Z 17003KT 09/04 A3005 RMK A01 T00880041  RH  073%=      5-min Rain = 0
KPD3 100746Z 17003KT 09/04 A3005 RMK A01 T00860041  RH  073%=      5-min Rain = 0
KPD3 100747Z 17003KT 09/04 A3005 RMK A01 T00860041  RH  074%=      5-min Rain = 0
KPD3 100748Z 17003KT 09/04 A3005 RMK A01 T00860041  RH  073%=      5-min Rain = 0
KPD3 100749Z 17004KT 09/04 A3005 RMK A01 T00860040  RH  072%=      5-min Rain = 0
KPD3 100750Z 18003KT 09/04 A3005 RMK A01 T00860041  RH  073%=      5-min Rain = 0
KPD3 100751Z 18003KT 09/04 A3004 RMK A01 T00880042  RH  073%=      5-min Rain = 0
KPD3 100752Z 17003KT 09/05 A3004 RMK A01 T00920045  RH  072%=      5-min Rain = 0
KPD3 100753Z 18003KT 09/04 A3004 RMK A01 T00940044  RH  071%=      5-min Rain = 0
KPD3 100754Z 17003KT 09/04 A3004 RMK A01 T00940043  RH  071%=      5-min Rain = 0
KPD3 100755Z 18002KT 09/04 A3004 RMK A01 T00920042  RH  071%=      5-min Rain = 0
KPD3 100756Z 18003KT 09/04 A3004 RMK A01 T00910043  RH  072%=      5-min Rain = 0
KPD3 100757Z 18003KT 09/04 A3004 RMK A01 T00920043  RH  072%=      5-min Rain = 0
KPD3 100758Z 18003KT 09/04 A3004 RMK A01 T00920042  RH  071%=      5-min Rain = 0
KPD3 100759Z 18004KT 09/04 A3004 RMK A01 T00890041  RH  071%=      5-min Rain = 0
KPD3 100800Z 18004KT 09/04 A3004 RMK A01 T00880041  RH  072%=      5-min Rain = 0
KPD3 100801Z 18004KT 09/04 A3004 RMK A01 T00860040  RH  073%=      5-min Rain = 0
KPD3 100802Z 18004KT 08/04 A3004 RMK A01 T00840041  RH  074%=      5-min Rain = 0
KPD3 100803Z 18004KT 08/04 A3004 RMK A01 T00840042  RH  075%=      5-min Rain = 0
KPD3 100804Z 18005KT 08/04 A3004 RMK A01 T00840041  RH  074%=      5-min Rain = 0
KPD3 100805Z 18004KT 08/04 A3004 RMK A01 T00810037  RH  074%=      5-min Rain = 0
KPD3 100806Z 18005KT 08/04 A3004 RMK A01 T00770036  RH  075%=      5-min Rain = 0
KPD3 100807Z 18005KT 08/04 A3004 RMK A01 T00750036  RH  077%=      5-min Rain = 0
KPD3 100808Z 18005KT 07/04 A3004 RMK A01 T00730035  RH  077%=      5-min Rain = 0
KPD3 100809Z 18005KT 07/04 A3004 RMK A01 T00710035  RH  078%=      5-min Rain = 0
KPD3 100810Z 18005KT 07/03 A3004 RMK A01 T00690034  RH  079%=      5-min Rain = 0
KPD3 100811Z 18005KT 07/04 A3004 RMK A01 T00680035  RH  079%=      5-min Rain = 0
KPD3 100812Z 18005KT 07/03 A3004 RMK A01 T00670034  RH  080%=      5-min Rain = 0
KPD3 100813Z 17005KT 07/03 A3004 RMK A01 T00650032  RH  080%=      5-min Rain = 0
KPD3 100814Z 18005KT 06/03 A3004 RMK A01 T00630033  RH  081%=      5-min Rain = 0
KPD3 100815Z 17005KT 06/03 A3004 RMK A01 T00630033  RH  081%=      5-min Rain = 0
KPD3 100816Z 16004KT 06/03 A3004 RMK A01 T00620034  RH  082%=      5-min Rain = 0
KPD3 100817Z 16004KT 06/04 A3004 RMK A01 T00630035  RH  082%=      5-min Rain = 0
KPD3 100818Z 16004KT 07/04 A3004 RMK A01 T00650036  RH  082%=      5-min Rain = 0
KPD3 100819Z 16005KT 07/04 A3003 RMK A01 T00650037  RH  082%=      5-min Rain = 0
KPD3 100820Z 16005KT 07/04 A3003 RMK A01 T00660037  RH  081%=      5-min Rain = 0
KPD3 100821Z 16005KT 07/04 A3003 RMK A01 T00660036  RH  081%=      5-min Rain = 0
KPD3 100822Z 16005KT 07/04 A3003 RMK A01 T00660036  RH  081%=      5-min Rain = 0
KPD3 100823Z 16005KT 07/04 A3003 RMK A01 T00660035  RH  081%=      5-min Rain = 0
KPD3 100824Z 16005KT 07/04 A3003 RMK A01 T00660035  RH  081%=      5-min Rain = 0
KPD3 100825Z 16004KT 07/03 A3003 RMK A01 T00650034  RH  081%=      5-min Rain = 0
KPD3 100826Z 16004KT 06/03 A3003 RMK A01 T00640034  RH  081%=      5-min Rain = 0
KPD3 100827Z 16004KT 06/04 A3003 RMK A01 T00630035  RH  082%=      5-min Rain = 0
KPD3 100828Z 16004KT 06/04 A3003 RMK A01 T00630035  RH  082%=      5-min Rain = 0
KPD3 100829Z 16003KT 06/04 A3003 RMK A01 T00630036  RH  083%=      5-min Rain = 0
KPD3 100830Z 16002KT 06/04 A3003 RMK A01 T00630036  RH  083%=      5-min Rain = 0
KPD3 100831Z 15003KT 06/04 A3003 RMK A01 T00630036  RH  083%=      5-min Rain = 0
KPD3 100832Z 15003KT 06/04 A3003 RMK A01 T00630037  RH  083%=      5-min Rain = 0
KPD3 100833Z 15003KT 06/04 A3003 RMK A01 T00640037  RH  083%=      5-min Rain = 0
KPD3 100834Z 16004KT 07/04 A3003 RMK A01 T00650038  RH  083%=      5-min Rain = 0
KPD3 100835Z 16004KT 07/04 A3003 RMK A01 T00650038  RH  083%=      5-min Rain = 0
KPD3 100836Z 16004KT 07/04 A3003 RMK A01 T00660037  RH  082%=      5-min Rain = 0
KPD3 100837Z 16004KT 07/04 A3003 RMK A01 T00660037  RH  082%=      5-min Rain = 0
KPD3 100838Z 16005KT 07/04 A3003 RMK A01 T00660036  RH  081%=      5-min Rain = 0
KPD3 100839Z 16005KT 07/03 A3003 RMK A01 T00650034  RH  081%=      5-min Rain = 0
KPD3 100840Z 16005KT 06/03 A3003 RMK A01 T00630033  RH  081%=      5-min Rain = 0
KPD3 100841Z 16004KT 06/03 A3003 RMK A01 T00620033  RH  082%=      5-min Rain = 0
KPD3 100842Z 16005KT 06/03 A3003 RMK A01 T00610033  RH  082%=      5-min Rain = 0
KPD3 100843Z 15004KT 06/03 A3003 RMK A01 T00600032  RH  082%=      5-min Rain = 0
KPD3 100844Z 15004KT 06/03 A3003 RMK A01 T00580031  RH  083%=      5-min Rain = 0
KPD3 100845Z 16005KT 06/03 A3003 RMK A01 T00570031  RH  083%=      5-min Rain = 0
KPD3 100846Z 16005KT 06/03 A3003 RMK A01 T00560031  RH  084%=      5-min Rain = 0
KPD3 100847Z 16004KT 06/03 A3003 RMK A01 T00550030  RH  084%=      5-min Rain = 0
KPD3 100848Z 16005KT 05/03 A3003 RMK A01 T00540030  RH  085%=      5-min Rain = 0
KPD3 100849Z 15005KT 05/03 A3002 RMK A01 T00520029  RH  085%=      5-min Rain = 0
KPD3 100850Z 16005KT 05/03 A3002 RMK A01 T00510029  RH  085%=      5-min Rain = 0
KPD3 100851Z 15005KT 05/03 A3002 RMK A01 T00510029  RH  086%=      5-min Rain = 0
KPD3 100852Z 16005KT 05/03 A3002 RMK A01 T00500029  RH  086%=      5-min Rain = 0
KPD3 100853Z 16005KT 05/03 A3002 RMK A01 T00490029  RH  087%=      5-min Rain = 0
KPD3 100854Z 15005KT 05/03 A3002 RMK A01 T00490029  RH  087%=      5-min Rain = 0
KPD3 100855Z 15005KT 05/03 A3002 RMK A01 T00490029  RH  087%=      5-min Rain = 0
KPD3 100856Z 15005KT 05/03 A3002 RMK A01 T00480029  RH  088%=      5-min Rain = 0
KPD3 100857Z 16005KT 05/03 A3002 RMK A01 T00480029  RH  088%=      5-min Rain = 0
KPD3 100858Z 16005KT 05/03 A3002 RMK A01 T00470029  RH  088%=      5-min Rain = 0
KPD3 100859Z 16005KT 05/03 A3002 RMK A01 T00470029  RH  088%=      5-min Rain = 0
KPD3 100900Z 16005KT 05/03 A3002 RMK A01 T00470029  RH  089%=      5-min Rain = 0
KPD3 100901Z 16004KT 05/03 A3002 RMK A01 T00460030  RH  089%=      5-min Rain = 0
KPD3 100902Z 16004KT 05/03 A3002 RMK A01 T00470031  RH  089%=      5-min Rain = 0
KPD3 100903Z 17004KT 05/03 A3002 RMK A01 T00470031  RH  089%=      5-min Rain = 0
KPD3 100904Z 17004KT 05/03 A3002 RMK A01 T00480032  RH  089%=      5-min Rain = 0
KPD3 100905Z 17004KT 05/03 A3002 RMK A01 T00480032  RH  089%=      5-min Rain = 0
KPD3 100906Z 17005KT 05/03 A3002 RMK A01 T00490031  RH  089%=      5-min Rain = 0
KPD3 100907Z 18005KT 05/03 A3002 RMK A01 T00490031  RH  088%=      5-min Rain = 0
KPD3 100908Z 18004KT 05/03 A3002 RMK A01 T00490031  RH  088%=      5-min Rain = 0
KPD3 100909Z 18005KT 05/03 A3002 RMK A01 T00490030  RH  088%=      5-min Rain = 0
KPD3 100910Z 18005KT 05/03 A3002 RMK A01 T00490031  RH  088%=      5-min Rain = 0
KPD3 100911Z 18005KT 05/03 A3002 RMK A01 T00500032  RH  088%=      5-min Rain = 0
KPD3 100912Z 18005KT 05/03 A3002 RMK A01 T00510032  RH  088%=      5-min Rain = 0
KPD3 100913Z 18005KT 05/03 A3002 RMK A01 T00520032  RH  087%=      5-min Rain = 0
KPD3 100914Z 19003KT 05/03 A3002 RMK A01 T00520030  RH  086%=      5-min Rain = 0
KPD3 100915Z 18004KT 05/02 A3002 RMK A01 T00490024  RH  084%=      5-min Rain = 0
KPD3 100916Z 18005KT 05/03 A3002 RMK A01 T00470025  RH  086%=      5-min Rain = 0
KPD3 100917Z 17005KT 05/03 A3002 RMK A01 T00470027  RH  087%=      5-min Rain = 0
KPD3 100918Z 18004KT 05/03 A3002 RMK A01 T00470028  RH  088%=      5-min Rain = 0
KPD3 100919Z 18005KT 05/03 A3002 RMK A01 T00470029  RH  088%=      5-min Rain = 0
KPD3 100920Z 17005KT 05/03 A3002 RMK A01 T00490030  RH  088%=      5-min Rain = 0
KPD3 100921Z 17004KT 05/03 A3002 RMK A01 T00490029  RH  087%=      5-min Rain = 0
KPD3 100922Z 17004KT 05/03 A3002 RMK A01 T00490027  RH  086%=      5-min Rain = 0
KPD3 100923Z 17005KT 05/03 A3002 RMK A01 T00480025  RH  086%=      5-min Rain = 0
KPD3 100924Z 17004KT 05/03 A3002 RMK A01 T00470026  RH  086%=      5-min Rain = 0
KPD3 100925Z 16006KT 05/03 A3002 RMK A01 T00460026  RH  087%=      5-min Rain = 0
KPD3 100926Z 16005KT 05/03 A3002 RMK A01 T00450026  RH  087%=      5-min Rain = 0
KPD3 100927Z 15005KT 04/02 A3002 RMK A01 T00440024  RH  087%=      5-min Rain = 0
KPD3 100928Z 15005KT 04/02 A3002 RMK A01 T00430024  RH  087%=      5-min Rain = 0
KPD3 100929Z 15004KT 04/02 A3002 RMK A01 T00410023  RH  088%=      5-min Rain = 0
KPD3 100930Z 14003KT 04/02 A3002 RMK A01 T00400022  RH  088%=      5-min Rain = 0
KPD3 100931Z 12002KT 04/02 A3002 RMK A01 T00400023  RH  089%=      5-min Rain = 0
KPD3 100932Z 13002KT 04/02 A3002 RMK A01 T00390023  RH  089%=      5-min Rain = 0
KPD3 100933Z 13003KT 04/03 A3002 RMK A01 T00400025  RH  090%=      5-min Rain = 0
KPD3 100934Z 13003KT 04/03 A3002 RMK A01 T00420027  RH  090%=      5-min Rain = 0
KPD3 100935Z 13002KT 04/03 A3002 RMK A01 T00440028  RH  089%=      5-min Rain = 0
KPD3 100936Z 12002KT 04/03 A3001 RMK A01 T00440026  RH  088%=      5-min Rain = 0
KPD3 100937Z 10002KT 04/02 A3001 RMK A01 T00430024  RH  087%=      5-min Rain = 0
KPD3 100938Z 10002KT 04/02 A3002 RMK A01 T00410022  RH  087%=      5-min Rain = 0
KPD3 100939Z 11002KT 04/02 A3002 RMK A01 T00400022  RH  088%=      5-min Rain = 0
KPD3 100940Z 09002KT 04/02 A3001 RMK A01 T00400023  RH  089%=      5-min Rain = 0
KPD3 100941Z 10002KT 04/02 A3001 RMK A01 T00390023  RH  089%=      5-min Rain = 0
KPD3 100942Z 12002KT 04/02 A3001 RMK A01 T00380022  RH  089%=      5-min Rain = 0
KPD3 100943Z 13003KT 04/02 A3001 RMK A01 T00380021  RH  089%=      5-min Rain = 0
KPD3 100944Z 13003KT 04/02 A3001 RMK A01 T00370021  RH  089%=      5-min Rain = 0
KPD3 100945Z 15003KT 04/02 A3001 RMK A01 T00370022  RH  090%=      5-min Rain = 0
KPD3 100946Z 15004KT 04/02 A3001 RMK A01 T00380024  RH  091%=      5-min Rain = 0
KPD3 100947Z 15004KT 04/02 A3001 RMK A01 T00380023  RH  090%=      5-min Rain = 0
KPD3 100948Z 16004KT 04/02 A3001 RMK A01 T00380022  RH  089%=      5-min Rain = 0
KPD3 100949Z 16004KT 04/02 A3001 RMK A01 T00380021  RH  089%=      5-min Rain = 0
KPD3 100950Z 16005KT 04/02 A3001 RMK A01 T00380023  RH  090%=      5-min Rain = 0
KPD3 100951Z 16005KT 04/03 A3001 RMK A01 T00400025  RH  090%=      5-min Rain = 0
KPD3 100952Z 16005KT 04/03 A3001 RMK A01 T00410025  RH  089%=      5-min Rain = 0
KPD3 100953Z 16005KT 04/03 A3001 RMK A01 T00430026  RH  089%=      5-min Rain = 0
KPD3 100954Z 17005KT 04/03 A3001 RMK A01 T00440027  RH  089%=      5-min Rain = 0
KPD3 100955Z 16005KT 05/03 A3001 RMK A01 T00450028  RH  088%=      5-min Rain = 0
KPD3 100956Z 16005KT 05/03 A3001 RMK A01 T00460027  RH  087%=      5-min Rain = 0
KPD3 100957Z 16005KT 05/03 A3001 RMK A01 T00460026  RH  087%=      5-min Rain = 0
KPD3 100958Z 17005KT 05/03 A3001 RMK A01 T00470025  RH  086%=      5-min Rain = 0
KPD3 100959Z 17005KT 05/03 A3001 RMK A01 T00470026  RH  086%=      5-min Rain = 0
KPD3 101000Z 17004KT 05/03 A3001 RMK A01 T00470026  RH  086%=      5-min Rain = 0
KPD3 101001Z 17004KT 05/02 A3001 RMK A01 T00470023  RH  085%=      5-min Rain = 0
KPD3 101002Z 17004KT 05/02 A3001 RMK A01 T00460023  RH  085%=      5-min Rain = 0
KPD3 101003Z 17004KT 05/02 A3001 RMK A01 T00450023  RH  086%=      5-min Rain = 0
KPD3 101004Z 18002KT 04/02 A3001 RMK A01 T00440023  RH  086%=      5-min Rain = 0
KPD3 101005Z 18002KT 04/02 A3001 RMK A01 T00430023  RH  087%=      5-min Rain = 0
KPD3 101006Z 17002KT 04/02 A3001 RMK A01 T00410020  RH  086%=      5-min Rain = 0
KPD3 101007Z 17003KT 04/02 A3001 RMK A01 T00400021  RH  087%=      5-min Rain = 0
KPD3 101008Z 17003KT 04/03 A3001 RMK A01 T00410025  RH  089%=      5-min Rain = 0
KPD3 101009Z 17003KT 04/02 A3001 RMK A01 T00420024  RH  088%=      5-min Rain = 0
KPD3 101010Z 17003KT 04/03 A3001 RMK A01 T00420025  RH  088%=      5-min Rain = 0
KPD3 101011Z 17002KT 04/03 A3001 RMK A01 T00430027  RH  089%=      5-min Rain = 0
KPD3 101012Z 17003KT 04/03 A3001 RMK A01 T00440026  RH  088%=      5-min Rain = 0
KPD3 101013Z 17002KT 04/02 A3001 RMK A01 T00430024  RH  087%=      5-min Rain = 0
KPD3 101014Z 19002KT 04/02 A3001 RMK A01 T00430024  RH  087%=      5-min Rain = 0
KPD3 101015Z 19001KT 04/02 A3001 RMK A01 T00400019  RH  086%=      5-min Rain = 0
KPD3 101016Z 19002KT 04/02 A3001 RMK A01 T00400023  RH  089%=      5-min Rain = 0
KPD3 101017Z 19002KT 04/02 A3001 RMK A01 T00410023  RH  088%=      5-min Rain = 0
KPD3 101018Z 19003KT 04/02 A30 RMK A01 T00410023  RH  088%=      5-min Rain = 0
KPD3 101019Z 20002KT 04/02 A3001 RMK A01 T00410024  RH  088%=      5-min Rain = 0
KPD3 101020Z 20002KT 04/02 A30 RMK A01 T00400021  RH  087%=      5-min Rain = 0
KPD3 101021Z 20002KT 04/02 A30 RMK A01 T00400023  RH  089%=      5-min Rain = 0
KPD3 101022Z 19002KT 04/03 A30 RMK A01 T00410025  RH  089%=      5-min Rain = 0
KPD3 101023Z 19003KT 04/03 A30 RMK A01 T00420025  RH  089%=      5-min Rain = 0
KPD3 101024Z 18003KT 04/03 A30 RMK A01 T00430027  RH  089%=      5-min Rain = 0
KPD3 101025Z 19003KT 04/03 A30 RMK A01 T00430026  RH  088%=      5-min Rain = 0
KPD3 101026Z 20003KT 04/03 A30 RMK A01 T00430025  RH  088%=      5-min Rain = 0
KPD3 101027Z 18003KT 04/03 A30 RMK A01 T00430027  RH  089%=      5-min Rain = 0
KPD3 101028Z 17003KT 04/03 A30 RMK A01 T00440027  RH  089%=      5-min Rain = 0
KPD3 101029Z 17002KT 05/03 A30 RMK A01 T00450026  RH  088%=      5-min Rain = 0
KPD3 101030Z 17000KT 04/02 A30 RMK A01 T00410018  RH  085%=      5-min Rain = 0
KPD3 101031Z 17000KT 04/01 A30 RMK A01 T00360014  RH  085%=      5-min Rain = 0
KPD3 101032Z 02001KT 04/02 A30 RMK A01 T00350015  RH  087%=      5-min Rain = 0
KPD3 101033Z 02002KT 03/01 A30 RMK A01 T00310011  RH  087%=      5-min Rain = 0
KPD3 101034Z 07001KT 03/01 A30 RMK A01 T00290012  RH  089%=      5-min Rain = 0
KPD3 101035Z 04002KT 03/02 A30 RMK A01 T00290016  RH  091%=      5-min Rain = 0
KPD3 101036Z 03002KT 03/02 A30 RMK A01 T00290016  RH  091%=      5-min Rain = 0
KPD3 101037Z 06002KT 03/02 A30 RMK A01 T00320020  RH  092%=      5-min Rain = 0
KPD3 101038Z 04003KT 04/02 A30 RMK A01 T00360024  RH  092%=      5-min Rain = 0
KPD3 101039Z 06002KT 04/02 A30 RMK A01 T00350019  RH  089%=      5-min Rain = 0
KPD3 101040Z 05002KT 03/02 A30 RMK A01 T00330017  RH  089%=      5-min Rain = 0
KPD3 101041Z 08002KT 03/02 A30 RMK A01 T00310015  RH  089%=      5-min Rain = 0
KPD3 101042Z 07002KT 03/02 A30 RMK A01 T00300016  RH  090%=      5-min Rain = 0
KPD3 101043Z 10001KT 03/02 A30 RMK A01 T00300017  RH  091%=      5-min Rain = 0
KPD3 101044Z 13000KT 03/02 A30 RMK A01 T00300018  RH  092%=      5-min Rain = 0
KPD3 101045Z 11001KT 03/02 A30 RMK A01 T00300019  RH  092%=      5-min Rain = 0
KPD3 101046Z 12002KT 03/02 A30 RMK A01 T00330022  RH  093%=      5-min Rain = 0
KPD3 101047Z 12002KT 04/03 A30 RMK A01 T00360025  RH  093%=      5-min Rain = 0
KPD3 101048Z 13003KT 04/02 A30 RMK A01 T00370023  RH  091%=      5-min Rain = 0
KPD3 101049Z 12003KT 04/02 A30 RMK A01 T00350020  RH  089%=      5-min Rain = 0
KPD3 101050Z 13004KT 04/02 A30 RMK A01 T00350020  RH  090%=      5-min Rain = 0
KPD3 101051Z 13004KT 04/03 A30 RMK A01 T00370026  RH  092%=      5-min Rain = 0
KPD3 101052Z 14004KT 04/03 A30 RMK A01 T00400026  RH  091%=      5-min Rain = 0
KPD3 101053Z 14003KT 04/02 A30 RMK A01 T00400023  RH  089%=      5-min Rain = 0
KPD3 101054Z 13003KT 04/02 A30 RMK A01 T00400024  RH  089%=      5-min Rain = 0
KPD3 101055Z 12003KT 04/03 A30 RMK A01 T00420026  RH  089%=      5-min Rain = 0
KPD3 101056Z 11003KT 04/02 A30 RMK A01 T00410023  RH  088%=      5-min Rain = 0
KPD3 101057Z 09002KT 04/02 A30 RMK A01 T00400021  RH  088%=      5-min Rain = 0
KPD3 101058Z 05002KT 04/02 A30 RMK A01 T00370018  RH  088%=      5-min Rain = 0
KPD3 101059Z 06003KT 03/02 A30 RMK A01 T00330015  RH  088%=      5-min Rain = 0
KPD3 101100Z 04003KT 03/01 A30 RMK A01 T00300014  RH  089%=      5-min Rain = 0
KPD3 101101Z 04004KT 03/01 A30 RMK A01 T00280014  RH  090%=      5-min Rain = 0
KPD3 101102Z 05003KT 03/02 A30 RMK A01 T00280015  RH  092%=      5-min Rain = 0
KPD3 101103Z 07003KT 03/02 A30 RMK A01 T00270017  RH  093%=      5-min Rain = 0
KPD3 101104Z 09003KT 03/02 A30 RMK A01 T00290020  RH  094%=      5-min Rain = 0
KPD3 101105Z 09003KT 03/02 A30 RMK A01 T00320024  RH  094%=      5-min Rain = 0
KPD3 101106Z 11003KT 03/03 A30 RMK A01 T00340025  RH  094%=      5-min Rain = 0
KPD3 101107Z 12004KT 04/03 A30 RMK A01 T00360025  RH  093%=      5-min Rain = 0
KPD3 101108Z 13003KT 04/02 A30 RMK A01 T00360024  RH  092%=      5-min Rain = 0
KPD3 101109Z 13003KT 04/03 A2999 RMK A01 T00390027  RH  092%=      5-min Rain = 0
KPD3 101110Z 12002KT 04/03 A2999 RMK A01 T00420029  RH  091%=      5-min Rain = 0
KPD3 101111Z 12002KT 05/03 A2999 RMK A01 T00450030  RH  090%=      5-min Rain = 0
KPD3 101112Z 12002KT 05/03 A2999 RMK A01 T00470030  RH  089%=      5-min Rain = 0
KPD3 101113Z 11002KT 05/03 A2999 RMK A01 T00490030  RH  088%=      5-min Rain = 0
KPD3 101114Z 13003KT 05/03 A2999 RMK A01 T00490029  RH  087%=      5-min Rain = 0
KPD3 101115Z 12003KT 05/03 A2999 RMK A01 T00490028  RH  086%=      5-min Rain = 0
KPD3 101116Z 13004KT 05/03 A2999 RMK A01 T00470026  RH  086%=      5-min Rain = 0
KPD3 101117Z 13004KT 05/03 A2999 RMK A01 T00450025  RH  087%=      5-min Rain = 0
KPD3 101118Z 13004KT 05/03 A2999 RMK A01 T00450026  RH  088%=      5-min Rain = 0
KPD3 101119Z 14005KT 05/03 A2999 RMK A01 T00450026  RH  087%=      5-min Rain = 0
KPD3 101120Z 14004KT 05/02 A2999 RMK A01 T00450024  RH  087%=      5-min Rain = 0
KPD3 101121Z 15005KT 04/02 A2999 RMK A01 T00430023  RH  087%=      5-min Rain = 0
KPD3 101122Z 15005KT 04/02 A2999 RMK A01 T00430024  RH  087%=      5-min Rain = 0
KPD3 101123Z 14004KT 04/02 A2999 RMK A01 T00410021  RH  087%=      5-min Rain = 0
KPD3 101124Z 14004KT 04/02 A2999 RMK A01 T00400021  RH  087%=      5-min Rain = 0
KPD3 101125Z 15004KT 04/02 A2999 RMK A01 T00400022  RH  088%=      5-min Rain = 0
KPD3 101126Z 15004KT 04/03 A2999 RMK A01 T00410027  RH  090%=      5-min Rain = 0
KPD3 101127Z 15004KT 05/03 A2999 RMK A01 T00460032  RH  091%=      5-min Rain = 0
KPD3 101128Z 15004KT 05/03 A2999 RMK A01 T00490034  RH  090%=      5-min Rain = 0
KPD3 101129Z 16004KT 05/04 A2999 RMK A01 T00520036  RH  089%=      5-min Rain = 0
KPD3 101130Z 15003KT 06/04 A2999 RMK A01 T00550035  RH  087%=      5-min Rain = 0
KPD3 101131Z 16003KT 06/03 A2999 RMK A01 T00550033  RH  086%=      5-min Rain = 0
KPD3 101132Z 16003KT 06/03 A2999 RMK A01 T00550032  RH  085%=      5-min Rain = 0
KPD3 101133Z 16002KT 05/03 A2999 RMK A01 T00540030  RH  084%=      5-min Rain = 0
KPD3 101134Z 21002KT 05/03 A2999 RMK A01 T00520028  RH  084%=      5-min Rain = 0
KPD3 101135Z 21002KT 05/03 A2999 RMK A01 T00510030  RH  086%=      5-min Rain = 0
KPD3 101136Z 20002KT 06/03 A2999 RMK A01 T00560033  RH  085%=      5-min Rain = 0
KPD3 101137Z 17003KT 06/03 A2999 RMK A01 T00550027  RH  082%=      5-min Rain = 0
KPD3 101138Z 19002KT 05/03 A2999 RMK A01 T00520025  RH  083%=      5-min Rain = 0
KPD3 101139Z 22001KT 05/02 A2999 RMK A01 T00500024  RH  083%=      5-min Rain = 0
KPD3 101140Z 22002KT 05/02 A2999 RMK A01 T00470023  RH  084%=      5-min Rain = 0
KPD3 101141Z 22001KT 05/02 A2999 RMK A01 T00450020  RH  084%=      5-min Rain = 0
KPD3 101142Z 22001KT 04/02 A2999 RMK A01 T00430019  RH  084%=      5-min Rain = 0
KPD3 101143Z 25001KT 04/02 A2999 RMK A01 T00420020  RH  086%=      5-min Rain = 0
KPD3 101144Z 25002KT 04/01 A2999 RMK A01 T00380014  RH  084%=      5-min Rain = 0
KPD3 101145Z 26003KT 04/02 A2999 RMK A01 T00370017  RH  087%=      5-min Rain = 0
KPD3 101146Z 26004KT 04/02 A2999 RMK A01 T00360019  RH  088%=      5-min Rain = 0
KPD3 101147Z 24003KT 04/02 A2999 RMK A01 T00370021  RH  089%=      5-min Rain = 0
KPD3 101148Z 27003KT 04/02 A2999 RMK A01 T00380022  RH  089%=      5-min Rain = 0
KPD3 101149Z 28003KT 04/02 A2999 RMK A01 T00390022  RH  089%=      5-min Rain = 0
KPD3 101150Z 28002KT 04/01 A2998 RMK A01 T00380014  RH  084%=      5-min Rain = 0
KPD3 101151Z 28003KT 04/01 A2998 RMK A01 T00350008  RH  083%=      5-min Rain = 0
KPD3 101152Z 28003KT 03/01 A2998 RMK A01 T00320007  RH  083%=      5-min Rain = 0
KPD3 101153Z 28003KT 03/01 A2998 RMK A01 T00290006  RH  085%=      5-min Rain = 0
KPD3 101154Z 26005KT 03/01 A2998 RMK A01 T00260005  RH  086%=      5-min Rain = 0
KPD3 101155Z 26004KT 03/01 A2998 RMK A01 T00250009  RH  089%=      5-min Rain = 0
KPD3 101156Z 26005KT 03/02 A2998 RMK A01 T00300019  RH  093%=      5-min Rain = 0
KPD3 101157Z 26006KT 03/02 A2998 RMK A01 T00340024  RH  093%=      5-min Rain = 0
KPD3 101158Z 25007KT 04/02 A2998 RMK A01 T00360022  RH  091%=      5-min Rain = 0
KPD3 101159Z 26006KT 04/02 A2998 RMK A01 T00380024  RH  090%=      5-min Rain = 0
KPD3 101200Z 25006KT 04/03 A2998 RMK A01 T00400026  RH  090%=      5-min Rain = 0
KPD3 101201Z 25007KT 04/03 A2998 RMK A01 T00420026  RH  089%=      5-min Rain = 0
KPD3 101202Z 26006KT 04/03 A2998 RMK A01 T00430026  RH  089%=      5-min Rain = 0
KPD3 101203Z 25006KT 04/03 A2998 RMK A01 T00440027  RH  089%=      5-min Rain = 0
KPD3 101204Z 25004KT 05/03 A2998 RMK A01 T00450027  RH  088%=      5-min Rain = 0
KPD3 101205Z 26005KT 05/03 A2998 RMK A01 T00450027  RH  088%=      5-min Rain = 0
KPD3 101206Z 26006KT 05/03 A2998 RMK A01 T00470031  RH  089%=      5-min Rain = 0
KPD3 101207Z 26006KT 05/03 A2998 RMK A01 T00480031  RH  088%=      5-min Rain = 0
KPD3 101208Z 26005KT 05/03 A2998 RMK A01 T00490030  RH  088%=      5-min Rain = 0
KPD3 101209Z 27003KT 05/03 A2998 RMK A01 T00490029  RH  087%=      5-min Rain = 0
KPD3 101210Z 30002KT 05/02 A2998 RMK A01 T00460024  RH  086%=      5-min Rain = 0
KPD3 101211Z 28003KT 04/02 A2998 RMK A01 T00440023  RH  086%=      5-min Rain = 0
KPD3 101212Z 34002KT 04/02 A2998 RMK A01 T00430024  RH  087%=      5-min Rain = 0
KPD3 101213Z 04002KT 04/02 A2998 RMK A01 T00390017  RH  085%=      5-min Rain = 0
KPD3 101214Z 13001KT 04/02 A2998 RMK A01 T00370018  RH  088%=      5-min Rain = 0
KPD3 101215Z 10001KT 04/02 A2998 RMK A01 T00350017  RH  088%=      5-min Rain = 0
KPD3 101216Z 10001KT 03/02 A2998 RMK A01 T00340018  RH  089%=      5-min Rain = 0
KPD3 101217Z 09002KT 04/02 A2998 RMK A01 T00350020  RH  090%=      5-min Rain = 0
KPD3 101218Z 04000KT 04/02 A2998 RMK A01 T00350020  RH  090%=      5-min Rain = 0
KPD3 101219Z 00000KT 04/03 A2999 RMK A01 T00370025  RH  092%=      5-min Rain = 0
KPD3 101220Z 33001KT 04/02 A2999 RMK A01 T00370024  RH  091%=      5-min Rain = 0
KPD3 101221Z 26003KT 04/02 A2998 RMK A01 T00360021  RH  090%=      5-min Rain = 0
KPD3 101222Z 25003KT 04/03 A2998 RMK A01 T00370025  RH  092%=      5-min Rain = 0
KPD3 101223Z 23002KT 04/02 A2999 RMK A01 T00380024  RH  091%=      5-min Rain = 0
KPD3 101224Z 21002KT 04/03 A2998 RMK A01 T00380025  RH  091%=      5-min Rain = 0
KPD3 101225Z 16001KT 04/02 A2999 RMK A01 T00390024  RH  090%=      5-min Rain = 0
KPD3 101226Z 15001KT 04/03 A2999 RMK A01 T00400026  RH  091%=      5-min Rain = 0
KPD3 101227Z 12002KT 04/03 A2999 RMK A01 T00410026  RH  090%=      5-min Rain = 0
KPD3 101228Z 15001KT 04/02 A2999 RMK A01 T00400024  RH  089%=      5-min Rain = 0
KPD3 101229Z 15001KT 04/03 A2999 RMK A01 T00400026  RH  090%=      5-min Rain = 0
KPD3 101230Z 15001KT 04/03 A2999 RMK A01 T00410025  RH  090%=      5-min Rain = 0
KPD3 101231Z 13002KT 04/02 A2999 RMK A01 T00400024  RH  089%=      5-min Rain = 0
KPD3 101232Z 15002KT 04/02 A2999 RMK A01 T00380022  RH  089%=      5-min Rain = 0
KPD3 101233Z 15003KT 04/02 A2999 RMK A01 T00370021  RH  089%=      5-min Rain = 0
KPD3 101234Z 18004KT 04/02 A2999 RMK A01 T00350019  RH  089%=      5-min Rain = 0
KPD3 101235Z 19005KT 03/02 A2999 RMK A01 T00340019  RH  090%=      5-min Rain = 0
KPD3 101236Z 20006KT 03/02 A2999 RMK A01 T00330019  RH  091%=      5-min Rain = 0
KPD3 101237Z 20007KT 03/02 A2999 RMK A01 T00320019  RH  091%=      5-min Rain = 0
KPD3 101238Z 21007KT 03/02 A2999 RMK A01 T00310019  RH  092%=      5-min Rain = 0
KPD3 101239Z 21008KT 03/02 A2999 RMK A01 T00310020  RH  092%=      5-min Rain = 0
KPD3 101240Z 21008KT 03/02 A2999 RMK A01 T00320021  RH  093%=      5-min Rain = 0
KPD3 101241Z 21007KT 04/03 A2999 RMK A01 T00350026  RH  094%=      5-min Rain = 0
KPD3 101242Z 21007KT 04/03 A2999 RMK A01 T00380029  RH  094%=      5-min Rain = 0
KPD3 101243Z 21008KT 04/03 A2999 RMK A01 T00410032  RH  094%=      5-min Rain = 0
KPD3 101244Z 21007KT 04/04 A2999 RMK A01 T00440035  RH  093%=      5-min Rain = 0
KPD3 101245Z 21007KT 05/04 A2999 RMK A01 T00480037  RH  093%=      5-min Rain = 0
KPD3 101246Z 21008KT 05/04 A2999 RMK A01 T00510038  RH  091%=      5-min Rain = 0
KPD3 101247Z 22008KT 05/04 A2999 RMK A01 T00540039  RH  090%=      5-min Rain = 0
KPD3 101248Z 22008KT 06/04 A2999 RMK A01 T00570041  RH  089%=      5-min Rain = 0
KPD3 101249Z 22008KT 06/04 A2999 RMK A01 T00590041  RH  088%=      5-min Rain = 0
KPD3 101250Z 23008KT 06/04 A2999 RMK A01 T00620043  RH  088%=      5-min Rain = 0
KPD3 101251Z 22007KT 07/05 A2999 RMK A01 T00660045  RH  087%=      5-min Rain = 0
KPD3 101252Z 22008KT 07/05 A2999 RMK A01 T00680045  RH  085%=      5-min Rain = 0
KPD3 101253Z 22008KT 07/04 A2999 RMK A01 T00680044  RH  085%=      5-min Rain = 0
KPD3 101254Z 22008KT 07/05 A2999 RMK A01 T00690045  RH  084%=      5-min Rain = 0
KPD3 101255Z 22007KT 07/05 A2998 RMK A01 T00710045  RH  084%=      5-min Rain = 0
KPD3 101256Z 23007KT 07/05 A2998 RMK A01 T00710045  RH  083%=      5-min Rain = 0
KPD3 101257Z 22007KT 07/04 A2998 RMK A01 T00720044  RH  083%=      5-min Rain = 0
KPD3 101258Z 22007KT 07/04 A2998 RMK A01 T00720044  RH  082%=      5-min Rain = 0
KPD3 101259Z 22006KT 07/04 A2998 RMK A01 T00720043  RH  082%=      5-min Rain = 0
KPD3 101300Z 22007KT 07/04 A2998 RMK A01 T00720044  RH  082%=      5-min Rain = 0
KPD3 101301Z 22007KT 07/04 A2998 RMK A01 T00720044  RH  083%=      5-min Rain = 0
KPD3 101302Z 21006KT 07/04 A2998 RMK A01 T00720043  RH  082%=      5-min Rain = 0
KPD3 101303Z 22007KT 07/04 A2998 RMK A01 T00710043  RH  082%=      5-min Rain = 0
KPD3 101304Z 21006KT 07/04 A2998 RMK A01 T00700042  RH  083%=      5-min Rain = 0
KPD3 101305Z 22006KT 07/04 A2998 RMK A01 T00680041  RH  083%=      5-min Rain = 0
KPD3 101306Z 21005KT 07/04 A2998 RMK A01 T00670040  RH  083%=      5-min Rain = 0
KPD3 101307Z 21005KT 07/04 A2998 RMK A01 T00660040  RH  083%=      5-min Rain = 0
KPD3 101308Z 22005KT 07/04 A2998 RMK A01 T00650039  RH  084%=      5-min Rain = 0
KPD3 101309Z 22005KT 06/04 A2998 RMK A01 T00640038  RH  084%=      5-min Rain = 0
KPD3 101310Z 21006KT 06/04 A2999 RMK A01 T00630038  RH  084%=      5-min Rain = 0
KPD3 101311Z 22006KT 06/04 A2999 RMK A01 T00620037  RH  084%=      5-min Rain = 0
KPD3 101312Z 22005KT 06/04 A2999 RMK A01 T00600037  RH  085%=      5-min Rain = 0
KPD3 101313Z 22005KT 06/04 A2999 RMK A01 T00590036  RH  085%=      5-min Rain = 0
KPD3 101314Z 28002KT 06/03 A2999 RMK A01 T00560034  RH  085%=      5-min Rain = 0
KPD3 101315Z 33003KT 05/03 A2999 RMK A01 T00520029  RH  085%=      5-min Rain = 0
KPD3 101316Z 32003KT 05/03 A2999 RMK A01 T00470025  RH  085%=      5-min Rain = 0
KPD3 101317Z 28002KT 04/02 A2999 RMK A01 T00430022  RH  086%=      5-min Rain = 0
KPD3 101318Z 27003KT 04/03 A2999 RMK A01 T00420025  RH  089%=      5-min Rain = 0
KPD3 101319Z 25005KT 04/03 A2999 RMK A01 T00440031  RH  091%=      5-min Rain = 0
KPD3 101320Z 26005KT 05/03 A2999 RMK A01 T00460032  RH  091%=      5-min Rain = 0
KPD3 101321Z 25004KT 05/03 A2999 RMK A01 T00480034  RH  091%=      5-min Rain = 0
KPD3 101322Z 27003KT 05/04 A2999 RMK A01 T00490036  RH  091%=      5-min Rain = 0
KPD3 101323Z 25003KT 05/04 A2999 RMK A01 T00500035  RH  090%=      5-min Rain = 0
KPD3 101324Z 25003KT 05/03 A2999 RMK A01 T00490032  RH  088%=      5-min Rain = 0
KPD3 101325Z 24003KT 05/03 A2999 RMK A01 T00480030  RH  088%=      5-min Rain = 0
KPD3 101326Z 22003KT 05/03 A2999 RMK A01 T00470029  RH  088%=      5-min Rain = 0
KPD3 101327Z 20003KT 05/03 A2999 RMK A01 T00460028  RH  088%=      5-min Rain = 0
KPD3 101328Z 19003KT 05/03 A2999 RMK A01 T00450028  RH  089%=      5-min Rain = 0
KPD3 101329Z 19003KT 04/03 A2999 RMK A01 T00440028  RH  089%=      5-min Rain = 0
KPD3 101330Z 19004KT 04/03 A2999 RMK A01 T00440028  RH  090%=      5-min Rain = 0
KPD3 101331Z 19004KT 04/03 A2999 RMK A01 T00440028  RH  090%=      5-min Rain = 0
KPD3 101332Z 20005KT 04/03 A2999 RMK A01 T00440029  RH  090%=      5-min Rain = 0
KPD3 101333Z 20005KT 05/03 A2999 RMK A01 T00450031  RH  091%=      5-min Rain = 0
KPD3 101334Z 19004KT 05/03 A2999 RMK A01 T00450032  RH  091%=      5-min Rain = 0
KPD3 101335Z 20004KT 05/03 A2999 RMK A01 T00470034  RH  091%=      5-min Rain = 0
KPD3 101336Z 20005KT 05/04 A2999 RMK A01 T00480036  RH  092%=      5-min Rain = 0
KPD3 101337Z 20005KT 05/04 A2999 RMK A01 T00510039  RH  092%=      5-min Rain = 0
KPD3 101338Z 20004KT 05/04 A2999 RMK A01 T00530041  RH  092%=      5-min Rain = 0
KPD3 101339Z 19004KT 06/04 A2999 RMK A01 T00550043  RH  092%=      5-min Rain = 0
KPD3 101340Z 19003KT 06/04 A2999 RMK A01 T00570044  RH  091%=      5-min Rain = 0
KPD3 101341Z 18004KT 06/05 A2999 RMK A01 T00590045  RH  091%=      5-min Rain = 0
KPD3 101342Z 18003KT 06/05 A2999 RMK A01 T00600045  RH  090%=      5-min Rain = 0
KPD3 101343Z 20002KT 06/04 A2999 RMK A01 T00610044  RH  089%=      5-min Rain = 0
KPD3 101344Z 23002KT 06/05 A2999 RMK A01 T00620045  RH  089%=      5-min Rain = 0
KPD3 101345Z 19001KT 06/05 A2999 RMK A01 T00630045  RH  089%=      5-min Rain = 0
KPD3 101346Z 19001KT 06/05 A2999 RMK A01 T00640047  RH  088%=      5-min Rain = 0
KPD3 101347Z 18001KT 07/05 A2999 RMK A01 T00670048  RH  088%=      5-min Rain = 0
KPD3 101348Z 12000KT 07/05 A2999 RMK A01 T00690047  RH  086%=      5-min Rain = 0
KPD3 101349Z 14001KT 07/05 A2999 RMK A01 T00680046  RH  086%=      5-min Rain = 0
KPD3 101350Z 14001KT 07/05 A2999 RMK A01 T00680048  RH  087%=      5-min Rain = 0
KPD3 101351Z 13001KT 07/05 A2999 RMK A01 T00690049  RH  087%=      5-min Rain = 0
KPD3 101352Z 11002KT 07/05 A2999 RMK A01 T00690050  RH  087%=      5-min Rain = 0
KPD3 101353Z 08003KT 07/05 A2999 RMK A01 T00680047  RH  086%=      5-min Rain = 0
KPD3 101354Z 07003KT 06/04 A2999 RMK A01 T00630040  RH  085%=      5-min Rain = 0
KPD3 101355Z 07003KT 06/04 A2999 RMK A01 T00600037  RH  085%=      5-min Rain = 0
KPD3 101356Z 08003KT 06/04 A2999 RMK A01 T00580037  RH  087%=      5-min Rain = 0
KPD3 101357Z 05003KT 06/04 A2999 RMK A01 T00560037  RH  088%=      5-min Rain = 0
KPD3 101358Z 07002KT 06/04 A2999 RMK A01 T00560038  RH  088%=      5-min Rain = 0
KPD3 101359Z 11002KT 06/04 A2999 RMK A01 T00570040  RH  089%=      5-min Rain = 0
KPD3 101400Z 10003KT 06/04 A2999 RMK A01 T00590042  RH  089%=      5-min Rain = 0
KPD3 101401Z 09004KT 06/04 A2999 RMK A01 T00620044  RH  088%=      5-min Rain = 0
KPD3 101402Z 08004KT 06/04 A2999 RMK A01 T00630044  RH  088%=      5-min Rain = 0
KPD3 101403Z 05002KT 06/05 A2999 RMK A01 T00630045  RH  088%=      5-min Rain = 0
KPD3 101404Z 07004KT 06/05 A2999 RMK A01 T00640046  RH  088%=      5-min Rain = 0
KPD3 101405Z 09004KT 07/05 A2999 RMK A01 T00650047  RH  089%=      5-min Rain = 0
KPD3 101406Z 09004KT 07/05 A2999 RMK A01 T00660048  RH  089%=      5-min Rain = 0
KPD3 101407Z 08003KT 07/05 A30 RMK A01 T00670049  RH  088%=      5-min Rain = 0
KPD3 101408Z 08003KT 07/05 A2999 RMK A01 T00680050  RH  088%=      5-min Rain = 0
KPD3 101409Z 08003KT 07/05 A30 RMK A01 T00690052  RH  089%=      5-min Rain = 0
KPD3 101410Z 07003KT 07/05 A30 RMK A01 T00700053  RH  089%=      5-min Rain = 0
KPD3 101411Z 06004KT 07/05 A2999 RMK A01 T00710053  RH  088%=      5-min Rain = 0
KPD3 101412Z 07003KT 07/05 A2999 RMK A01 T00720053  RH  088%=      5-min Rain = 0
KPD3 101413Z 08003KT 07/05 A2999 RMK A01 T00710053  RH  088%=      5-min Rain = 0
KPD3 101414Z 06001KT 07/05 A2999 RMK A01 T00700052  RH  088%=      5-min Rain = 0
KPD3 101415Z 05002KT 07/05 A2999 RMK A01 T00690049  RH  087%=      5-min Rain = 0
KPD3 101416Z 07001KT 07/05 A2999 RMK A01 T00670047  RH  087%=      5-min Rain = 0
KPD3 101417Z 07000KT 07/05 A2999 RMK A01 T00670046  RH  087%=      5-min Rain = 0
KPD3 101418Z 08000KT 07/05 A2999 RMK A01 T00670048  RH  087%=      5-min Rain = 0
KPD3 101419Z 08001KT 07/05 A2999 RMK A01 T00690052  RH  089%=      5-min Rain = 0
KPD3 101420Z 07000KT 07/05 A2999 RMK A01 T00700053  RH  089%=      5-min Rain = 0
KPD3 101421Z 09001KT 07/05 A2999 RMK A01 T00720053  RH  088%=      5-min Rain = 0
KPD3 101422Z 06000KT 07/05 A2999 RMK A01 T00720052  RH  087%=      5-min Rain = 0
KPD3 101423Z 08001KT 07/05 A2999 RMK A01 T00740053  RH  087%=      5-min Rain = 0
KPD3 101424Z 11001KT 07/05 A2999 RMK A01 T00740052  RH  086%=      5-min Rain = 0
KPD3 101425Z 12002KT 08/05 A2999 RMK A01 T00750052  RH  086%=      5-min Rain = 0
KPD3 101426Z 10002KT 08/05 A2999 RMK A01 T00750053  RH  086%=      5-min Rain = 0
KPD3 101427Z 11002KT 08/05 A2999 RMK A01 T00750054  RH  086%=      5-min Rain = 0
KPD3 101428Z 09002KT 08/05 A30 RMK A01 T00760054  RH  086%=      5-min Rain = 0
KPD3 101429Z 09002KT 08/05 A30 RMK A01 T00750054  RH  086%=      5-min Rain = 0
KPD3 101430Z 08003KT 08/06 A30 RMK A01 T00760055  RH  087%=      5-min Rain = 0
KPD3 101431Z 07002KT 08/06 A30 RMK A01 T00750055  RH  087%=      5-min Rain = 0
KPD3 101432Z 07003KT 08/06 A30 RMK A01 T00760057  RH  088%=      5-min Rain = 0
KPD3 101433Z 09002KT 08/06 A30 RMK A01 T00760057  RH  088%=      5-min Rain = 0
KPD3 101434Z 09002KT 08/06 A30 RMK A01 T00760057  RH  088%=      5-min Rain = 0
KPD3 101435Z 10002KT 08/06 A30 RMK A01 T00770058  RH  088%=      5-min Rain = 0
KPD3 101436Z 10002KT 08/06 A30 RMK A01 T00780061  RH  089%=      5-min Rain = 0
KPD3 101437Z 10003KT 08/06 A30 RMK A01 T00800061  RH  088%=      5-min Rain = 0
KPD3 101438Z 10003KT 08/06 A30 RMK A01 T00810061  RH  087%=      5-min Rain = 0
KPD3 101439Z 11002KT 08/06 A30 RMK A01 T00820062  RH  087%=      5-min Rain = 0
KPD3 101440Z 12003KT 08/07 A30 RMK A01 T00840065  RH  087%=      5-min Rain = 0
KPD3 101441Z 12003KT 09/06 A30 RMK A01 T00860060  RH  084%=      5-min Rain = 0
KPD3 101442Z 12003KT 09/06 A30 RMK A01 T00870060  RH  083%=      5-min Rain = 0
KPD3 101443Z 12003KT 09/06 A30 RMK A01 T00880061  RH  083%=      5-min Rain = 0
KPD3 101444Z 14003KT 09/06 A30 RMK A01 T00890061  RH  083%=      5-min Rain = 0
KPD3 101445Z 14003KT 09/06 A30 RMK A01 T00900062  RH  082%=      5-min Rain = 0
KPD3 101446Z 14003KT 09/06 A30 RMK A01 T00910061  RH  081%=      5-min Rain = 0
KPD3 101447Z 15003KT 09/06 A30 RMK A01 T00920063  RH  082%=      5-min Rain = 0
KPD3 101448Z 14003KT 09/06 A30 RMK A01 T00940063  RH  081%=      5-min Rain = 0
KPD3 101449Z 14003KT 10/06 A30 RMK A01 T00950063  RH  081%=      5-min Rain = 0
KPD3 101450Z 14003KT 10/06 A2999 RMK A01 T00950063  RH  080%=      5-min Rain = 0
KPD3 101451Z 16003KT 10/06 A30 RMK A01 T00950063  RH  080%=      5-min Rain = 0
KPD3 101452Z 17004KT 10/06 A30 RMK A01 T00960064  RH  080%=      5-min Rain = 0
KPD3 101453Z 16003KT 10/06 A30 RMK A01 T00980063  RH  079%=      5-min Rain = 0
KPD3 101454Z 16003KT 10/06 A2999 RMK A01 T00990064  RH  079%=      5-min Rain = 0
KPD3 101455Z 16004KT 10/06 A2999 RMK A01 T01000064  RH  078%=      5-min Rain = 0
KPD3 101456Z 17003KT 10/07 A2999 RMK A01 T01010066  RH  079%=      5-min Rain = 0
KPD3 101457Z 17005KT 10/07 A2999 RMK A01 T01020068  RH  079%=      5-min Rain = 0
KPD3 101458Z 18005KT 10/07 A2999 RMK A01 T01040069  RH  079%=      5-min Rain = 0
KPD3 101459Z 18005KT 11/07 A2999 RMK A01 T01050069  RH  078%=      5-min Rain = 0
KPD3 101500Z 18005KT 11/07 A2999 RMK A01 T01070070  RH  078%=      5-min Rain = 0
KPD3 101501Z 18005KT 11/07 A2999 RMK A01 T01080070  RH  077%=      5-min Rain = 0
KPD3 101502Z 18005KT 11/07 A2999 RMK A01 T01090069  RH  077%=      5-min Rain = 0
KPD3 101503Z 19004KT 11/07 A30 RMK A01 T01090071  RH  077%=      5-min Rain = 0
KPD3 101504Z 18004KT 11/07 A30 RMK A01 T01100071  RH  077%=      5-min Rain = 0
KPD3 101505Z 19004KT 11/08 A30 RMK A01 T01120075  RH  078%=      5-min Rain = 0
KPD3 101506Z 20004KT 11/07 A30 RMK A01 T01140073  RH  076%=      5-min Rain = 0
KPD3 101507Z 19005KT 12/07 A30 RMK A01 T01150072  RH  075%=      5-min Rain = 0
KPD3 101508Z 19005KT 12/07 A2999 RMK A01 T01150072  RH  075%=      5-min Rain = 0
KPD3 101509Z 20005KT 12/07 A2999 RMK A01 T01160072  RH  074%=      5-min Rain = 0
KPD3 101510Z 19004KT 12/07 A2999 RMK A01 T01170072  RH  074%=      5-min Rain = 0
KPD3 101511Z 20004KT 12/08 A2999 RMK A01 T01190076  RH  075%=      5-min Rain = 0
KPD3 101512Z 20005KT 12/08 A2999 RMK A01 T01210076  RH  074%=      5-min Rain = 0
KPD3 101513Z 19004KT 12/07 A2999 RMK A01 T01220074  RH  073%=      5-min Rain = 0
KPD3 101514Z 22006KT 12/07 A2999 RMK A01 T01230074  RH  072%=      5-min Rain = 0
KPD3 101515Z 24007KT 13/07 A2999 RMK A01 T01250073  RH  070%=      5-min Rain = 0
KPD3 101516Z 23006KT 13/07 A2999 RMK A01 T01270072  RH  069%=      5-min Rain = 0
KPD3 101517Z 23007KT 13/07 A2999 RMK A01 T01290072  RH  068%=      5-min Rain = 0
KPD3 101518Z 23006KT 13/07 A2999 RMK A01 T01290070  RH  067%=      5-min Rain = 0
KPD3 101519Z 23006KT 13/07 A2999 RMK A01 T01300071  RH  068%=      5-min Rain = 0
KPD3 101520Z 24006KT 13/07 A2999 RMK A01 T01300069  RH  067%=      5-min Rain = 0
KPD3 101521Z 24007KT 13/07 A2999 RMK A01 T01300071  RH  067%=      5-min Rain = 0
KPD3 101522Z 24006KT 13/07 A2999 RMK A01 T01310072  RH  067%=      5-min Rain = 0
KPD3 101523Z 24007KT 13/07 A2999 RMK A01 T01320069  RH  066%=      5-min Rain = 0
KPD3 101524Z 24006KT 13/07 A2999 RMK A01 T01310069  RH  066%=      5-min Rain = 0
KPD3 101525Z 24006KT 13/07 A2999 RMK A01 T01300068  RH  066%=      5-min Rain = 0
KPD3 101526Z 23006KT 13/07 A2999 RMK A01 T01300069  RH  066%=      5-min Rain = 0
KPD3 101527Z 24006KT 13/07 A2999 RMK A01 T01310072  RH  067%=      5-min Rain = 0
KPD3 101528Z 25006KT 13/07 A2999 RMK A01 T01330072  RH  066%=      5-min Rain = 0
KPD3 101529Z 24005KT 13/07 A2999 RMK A01 T01340070  RH  065%=      5-min Rain = 0
KPD3 101530Z 24005KT 14/07 A2999 RMK A01 T01350071  RH  065%=      5-min Rain = 0
KPD3 101531Z 24006KT 14/07 A2998 RMK A01 T01350070  RH  064%=      5-min Rain = 0
KPD3 101532Z 25006KT 14/07 A2999 RMK A01 T01350070  RH  065%=      5-min Rain = 0
KPD3 101533Z 23006KT 14/07 A2998 RMK A01 T01370072  RH  065%=      5-min Rain = 0
KPD3 101534Z 24005KT 14/07 A2998 RMK A01 T01380072  RH  064%=      5-min Rain = 0
KPD3 101535Z 24006KT 14/07 A2998 RMK A01 T01400073  RH  064%=      5-min Rain = 0
KPD3 101536Z 25006KT 14/07 A2998 RMK A01 T01410071  RH  063%=      5-min Rain = 0
KPD3 101537Z 24007KT 14/07 A2998 RMK A01 T01410071  RH  063%=      5-min Rain = 0
KPD3 101538Z 24007KT 14/07 A2998 RMK A01 T01420072  RH  063%=      5-min Rain = 0
KPD3 101539Z 24007KT 14/07 A2998 RMK A01 T01430070  RH  061%=      5-min Rain = 0
KPD3 101540Z 24008KT 14/07 A2998 RMK A01 T01430071  RH  062%=      5-min Rain = 0
KPD3 101541Z 24008KT 14/07 A2998 RMK A01 T01430070  RH  061%=      5-min Rain = 0
KPD3 101542Z 24007KT 14/07 A2998 RMK A01 T01430069  RH  061%=      5-min Rain = 0
KPD3 101543Z 24006KT 14/07 A2998 RMK A01 T01420070  RH  062%=      5-min Rain = 0
KPD3 101544Z 24007KT 14/07 A2998 RMK A01 T01430072  RH  062%=      5-min Rain = 0
KPD3 101545Z 25008KT 15/07 A2998 RMK A01 T01450070  RH  061%=      5-min Rain = 0
KPD3 101546Z 24007KT 15/07 A2998 RMK A01 T01450070  RH  061%=      5-min Rain = 0
KPD3 101547Z 25008KT 14/07 A2998 RMK A01 T01440069  RH  061%=      5-min Rain = 0
KPD3 101548Z 24008KT 14/07 A2998 RMK A01 T01440070  RH  061%=      5-min Rain = 0
KPD3 101549Z 24007KT 15/07 A2998 RMK A01 T01450070  RH  061%=      5-min Rain = 0
KPD3 101550Z 23007KT 15/07 A2998 RMK A01 T01460071  RH  061%=      5-min Rain = 0
KPD3 101551Z 25007KT 15/07 A2998 RMK A01 T01470070  RH  060%=      5-min Rain = 0
KPD3 101552Z 25006KT 15/07 A2998 RMK A01 T01470069  RH  060%=      5-min Rain = 0
KPD3 101553Z 24007KT 15/07 A2998 RMK A01 T01470071  RH  060%=      5-min Rain = 0
KPD3 101554Z 24008KT 15/07 A2998 RMK A01 T01470071  RH  060%=      5-min Rain = 0
KPD3 101555Z 24008KT 15/07 A2998 RMK A01 T01490071  RH  060%=      5-min Rain = 0
KPD3 101556Z 24009KT 15/07 A2998 RMK A01 T01500071  RH  059%=      5-min Rain = 0
KPD3 101557Z 24009KT 15/07 A2998 RMK A01 T01510071  RH  059%=      5-min Rain = 0
KPD3 101558Z 24008KT 15/07 A2998 RMK A01 T01510070  RH  059%=      5-min Rain = 0
KPD3 101559Z 24008KT 15/07 A2998 RMK A01 T01510070  RH  058%=      5-min Rain = 0
KPD3 101600Z 25008KT 15/07 A2998 RMK A01 T01520069  RH  058%=      5-min Rain = 0
KPD3 101601Z 25009KT 15/07 A2998 RMK A01 T01520071  RH  058%=      5-min Rain = 0
KPD3 101602Z 26010KT 15/07 A2998 RMK A01 T01530069  RH  057%=      5-min Rain = 0
KPD3 101603Z 27010KT 15/07 A2998 RMK A01 T01540068  RH  057%=      5-min Rain = 0
KPD3 101604Z 25010KT 15/07 A2998 RMK A01 T01540067  RH  056%=      5-min Rain = 0
KPD3 101605Z 25008KT 15/07 A2998 RMK A01 T01540068  RH  057%=      5-min Rain = 0
KPD3 101606Z 25009KT 15/07 A2998 RMK A01 T01530069  RH  057%=      5-min Rain = 0
KPD3 101607Z 26007KT 16/07 A2998 RMK A01 T01550068  RH  056%=      5-min Rain = 0
KPD3 101608Z 27007KT 16/07 A2998 RMK A01 T01560067  RH  055%=      5-min Rain = 0
KPD3 101609Z 25008KT 16/07 A2998 RMK A01 T01570068  RH  055%=      5-min Rain = 0
KPD3 101610Z 26008KT 16/07 A2998 RMK A01 T01590068  RH  055%=      5-min Rain = 0
KPD3 101611Z 26011KT 16/07 A2998 RMK A01 T01610067  RH  054%=      5-min Rain = 0
KPD3 101612Z 25011KT 16/07 A2998 RMK A01 T01620065  RH  053%=      5-min Rain = 0
KPD3 101613Z 25010KT 16/07 A2998 RMK A01 T01600066  RH  054%=      5-min Rain = 0
KPD3 101614Z 26009KT 16/06 A2998 RMK A01 T01590064  RH  053%=      5-min Rain = 0
KPD3 101615Z 25009KT 16/06 A2998 RMK A01 T01580064  RH  054%=      5-min Rain = 0
KPD3 101616Z 25009KT 16/07 A2998 RMK A01 T01580065  RH  054%=      5-min Rain = 0
KPD3 101617Z 24010KT 16/07 A2998 RMK A01 T01600066  RH  054%=      5-min Rain = 0
KPD3 101618Z 24011KT 16/07 A2998 RMK A01 T01610066  RH  053%=      5-min Rain = 0
KPD3 101619Z 25010KT 16/07 A2998 RMK A01 T01610066  RH  053%=      5-min Rain = 0
KPD3 101620Z 25008KT 16/07 A2998 RMK A01 T01600066  RH  054%=      5-min Rain = 0
KPD3 101621Z 24009KT 16/07 A2998 RMK A01 T01590067  RH  054%=      5-min Rain = 0
KPD3 101622Z 24007KT 16/07 A2998 RMK A01 T01600067  RH  054%=      5-min Rain = 0
KPD3 101623Z 25009KT 16/07 A2998 RMK A01 T01610066  RH  053%=      5-min Rain = 0
KPD3 101624Z 25008KT 16/06 A2998 RMK A01 T01620064  RH  052%=      5-min Rain = 0
KPD3 101625Z 24009KT 16/07 A2998 RMK A01 T01630067  RH  053%=      5-min Rain = 0
KPD3 101626Z 24008KT 16/07 A2998 RMK A01 T01640067  RH  053%=      5-min Rain = 0
KPD3 101627Z 25006KT 16/07 A2997 RMK A01 T01620066  RH  053%=      5-min Rain = 0
KPD3 101628Z 24008KT 16/07 A2997 RMK A01 T01620068  RH  054%=      5-min Rain = 0
KPD3 101629Z 23008KT 16/07 A2997 RMK A01 T01630066  RH  053%=      5-min Rain = 0
KPD3 101630Z 23009KT 16/07 A2997 RMK A01 T01620067  RH  053%=      5-min Rain = 0
KPD3 101631Z 24010KT 16/07 A2997 RMK A01 T01630065  RH  053%=      5-min Rain = 0
KPD3 101632Z 24008KT 16/07 A2997 RMK A01 T01620065  RH  052%=      5-min Rain = 0
KPD3 101633Z 24008KT 16/07 A2997 RMK A01 T01620066  RH  053%=      5-min Rain = 0
KPD3 101634Z 24009KT 16/07 A2997 RMK A01 T01630066  RH  052%=      5-min Rain = 0
KPD3 101635Z 24008KT 16/06 A2997 RMK A01 T01630064  RH  052%=      5-min Rain = 0
KPD3 101636Z 23010KT 16/07 A2997 RMK A01 T01630065  RH  052%=      5-min Rain = 0
KPD3 101637Z 24009KT 16/07 A2997 RMK A01 T01630065  RH  052%=      5-min Rain = 0
KPD3 101638Z 24010KT 17/07 A2997 RMK A01 T01650067  RH  052%=      5-min Rain = 0
KPD3 101639Z 25009KT 17/07 A2997 RMK A01 T01680067  RH  051%=      5-min Rain = 0
KPD3 101640Z 25008KT 17/07 A2997 RMK A01 T01680065  RH  051%=      5-min Rain = 0
KPD3 101641Z 24007KT 17/07 A2997 RMK A01 T01680066  RH  051%=      5-min Rain = 0
KPD3 101642Z 25008KT 17/06 A2997 RMK A01 T01670064  RH  050%=      5-min Rain = 0
KPD3 101643Z 24007KT 17/06 A2997 RMK A01 T01680063  RH  050%=      5-min Rain = 0
KPD3 101644Z 25009KT 17/06 A2997 RMK A01 T01680064  RH  050%=      5-min Rain = 0
KPD3 101645Z 24009KT 17/06 A2997 RMK A01 T01700064  RH  050%=      5-min Rain = 0
KPD3 101646Z 24010KT 17/06 A2997 RMK A01 T01710063  RH  049%=      5-min Rain = 0
KPD3 101647Z 24010KT 17/06 A2997 RMK A01 T01710063  RH  049%=      5-min Rain = 0
KPD3 101648Z 25008KT 17/06 A2997 RMK A01 T01710063  RH  049%=      5-min Rain = 0
KPD3 101649Z 24009KT 17/06 A2997 RMK A01 T01710064  RH  049%=      5-min Rain = 0
KPD3 101650Z 24011KT 17/06 A2997 RMK A01 T01730064  RH  049%=      5-min Rain = 0
KPD3 101651Z 25009KT 17/06 A2997 RMK A01 T01730063  RH  048%=      5-min Rain = 0
KPD3 101652Z 24008KT 17/06 A2996 RMK A01 T01730064  RH  049%=      5-min Rain = 0
KPD3 101653Z 23009KT 17/06 A2996 RMK A01 T01720064  RH  049%=      5-min Rain = 0
KPD3 101654Z 24010KT 17/06 A2996 RMK A01 T01730064  RH  049%=      5-min Rain = 0
KPD3 101655Z 24009KT 17/06 A2996 RMK A01 T01740063  RH  048%=      5-min Rain = 0
KPD3 101656Z 24008KT 17/06 A2996 RMK A01 T01720062  RH  048%=      5-min Rain = 0
KPD3 101657Z 25011KT 17/06 A2996 RMK A01 T01730064  RH  049%=      5-min Rain = 0
KPD3 101658Z 26011KT 17/06 A2996 RMK A01 T01740062  RH  047%=      5-min Rain = 0
KPD3 101659Z 26009KT 17/06 A2996 RMK A01 T01740061  RH  047%=      5-min Rain = 0
KPD3 101700Z 27010KT 18/06 A2996 RMK A01 T01750062  RH  048%=      5-min Rain = 0
KPD3 101701Z 25009KT 18/06 A2996 RMK A01 T01750061  RH  047%=      5-min Rain = 0
KPD3 101702Z 26007KT 18/06 A2996 RMK A01 T01760062  RH  047%=      5-min Rain = 0
KPD3 101703Z 25008KT 18/06 A2996 RMK A01 T01760064  RH  048%=      5-min Rain = 0
KPD3 101704Z 25008KT 18/06 A2996 RMK A01 T01780064  RH  047%=      5-min Rain = 0
KPD3 101705Z 25008KT 18/07 A2996 RMK A01 T01780066  RH  048%=      5-min Rain = 0
KPD3 101706Z 25008KT 18/06 A2996 RMK A01 T01800064  RH  047%=      5-min Rain = 0
KPD3 101707Z 24007KT 18/06 A2996 RMK A01 T01810062  RH  046%=      5-min Rain = 0
KPD3 101708Z 27007KT 18/06 A2996 RMK A01 T01800063  RH  046%=      5-min Rain = 0
KPD3 101709Z 26005KT 18/06 A2996 RMK A01 T01790062  RH  046%=      5-min Rain = 0
KPD3 101710Z 24007KT 18/06 A2996 RMK A01 T01800063  RH  046%=      5-min Rain = 0
KPD3 101711Z 24007KT 18/06 A2995 RMK A01 T01800063  RH  046%=      5-min Rain = 0
KPD3 101712Z 24005KT 18/06 A2996 RMK A01 T01820062  RH  046%=      5-min Rain = 0
KPD3 101713Z 23006KT 18/07 A2995 RMK A01 T01840065  RH  046%=      5-min Rain = 0
KPD3 101714Z 24008KT 19/07 A2995 RMK A01 T01850065  RH  046%=      5-min Rain = 0
KPD3 101715Z 26007KT 19/06 A2995 RMK A01 T01850062  RH  044%=      5-min Rain = 0
KPD3 101716Z 26007KT 18/06 A2995 RMK A01 T01840062  RH  045%=      5-min Rain = 0
KPD3 101717Z 25009KT 19/06 A2995 RMK A01 T01850063  RH  045%=      5-min Rain = 0
KPD3 101718Z 24008KT 19/06 A2995 RMK A01 T01860062  RH  044%=      5-min Rain = 0
KPD3 101719Z 23006KT 19/06 A2995 RMK A01 T01870063  RH  044%=      5-min Rain = 0
KPD3 101720Z 22004KT 19/06 A2995 RMK A01 T01870063  RH  044%=      5-min Rain = 0
KPD3 101721Z 22005KT 19/07 A2995 RMK A01 T01870065  RH  045%=      5-min Rain = 0
KPD3 101722Z 22005KT 19/07 A2995 RMK A01 T01880068  RH  045%=      5-min Rain = 0
KPD3 101723Z 20006KT 19/07 A2995 RMK A01 T01900071  RH  046%=      5-min Rain = 0
KPD3 101724Z 19004KT 19/07 A2995 RMK A01 T01900069  RH  045%=      5-min Rain = 0
KPD3 101725Z 18005KT 19/07 A2995 RMK A01 T01870067  RH  045%=      5-min Rain = 0
KPD3 101726Z 28006KT 19/07 A2994 RMK A01 T01870067  RH  046%=      5-min Rain = 0
KPD3 101727Z 28004KT 19/06 A2994 RMK A01 T01870064  RH  044%=      5-min Rain = 0
KPD3 101728Z 25006KT 19/07 A2994 RMK A01 T01870065  RH  045%=      5-min Rain = 0
KPD3 101729Z 25005KT 19/07 A2994 RMK A01 T01870065  RH  045%=      5-min Rain = 0
KPD3 101730Z 26003KT 19/07 A2994 RMK A01 T01860065  RH  045%=      5-min Rain = 0
KPD3 101731Z 22004G9KT 19/07 A2994 RMK A01 T01850066  RH  046%=      5-min Rain = 0
KPD3 101732Z 21007KT 19/07 A2994 RMK A01 T01850067  RH  046%=      5-min Rain = 0
KPD3 101733Z 20006KT 19/07 A2994 RMK A01 T01850066  RH  046%=      5-min Rain = 0
KPD3 101734Z 20005KT 19/07 A2994 RMK A01 T01850066  RH  046%=      5-min Rain = 0
KPD3 101735Z 21006KT 18/07 A2994 RMK A01 T01840066  RH  046%=      5-min Rain = 0
KPD3 101736Z 22005KT 18/07 A2994 RMK A01 T01830066  RH  046%=      5-min Rain = 0
KPD3 101737Z 22007KT 18/07 A2994 RMK A01 T01820065  RH  046%=      5-min Rain = 0
KPD3 101738Z 23006KT 18/07 A2994 RMK A01 T01820065  RH  046%=      5-min Rain = 0
KPD3 101739Z 22005KT 18/07 A2994 RMK A01 T01830065  RH  046%=      5-min Rain = 0
KPD3 101740Z 23005KT 18/07 A2994 RMK A01 T01820065  RH  046%=      5-min Rain = 0
KPD3 101741Z 22005KT 18/07 A2994 RMK A01 T01830066  RH  046%=      5-min Rain = 0
KPD3 101742Z 21006KT 18/07 A2994 RMK A01 T01830067  RH  047%=      5-min Rain = 0
KPD3 101743Z 20006KT 18/07 A2994 RMK A01 T01830068  RH  047%=      5-min Rain = 0
KPD3 101744Z 18004KT 18/07 A2994 RMK A01 T01830067  RH  047%=      5-min Rain = 0
KPD3 101745Z 20005KT 18/07 A2994 RMK A01 T01820068  RH  047%=      5-min Rain = 0
KPD3 101746Z 20005KT 18/07 A2993 RMK A01 T01840065  RH  046%=      5-min Rain = 0
KPD3 101747Z 19004KT 18/06 A2993 RMK A01 T01840064  RH  045%=      5-min Rain = 0
KPD3 101748Z 21005KT 18/07 A2993 RMK A01 T01840066  RH  046%=      5-min Rain = 0
KPD3 101749Z 21006KT 18/07 A2993 RMK A01 T01840066  RH  046%=      5-min Rain = 0
KPD3 101750Z 20004KT 19/07 A2993 RMK A01 T01850068  RH  046%=      5-min Rain = 0
KPD3 101751Z 22006KT 19/07 A2993 RMK A01 T01860066  RH  045%=      5-min Rain = 0
KPD3 101752Z 22005KT 19/06 A2993 RMK A01 T01870064  RH  045%=      5-min Rain = 0
KPD3 101753Z 22004KT 19/07 A2993 RMK A01 T01870065  RH  045%=      5-min Rain = 0
KPD3 101754Z 22003KT 19/07 A2993 RMK A01 T01880066  RH  045%=      5-min Rain = 0
KPD3 101755Z 22004KT 19/07 A2993 RMK A01 T01890066  RH  045%=      5-min Rain = 0
KPD3 101756Z 18007KT 19/07 A2993 RMK A01 T01890069  RH  046%=      5-min Rain = 0
KPD3 101757Z 17007KT 19/07 A2993 RMK A01 T01890073  RH  047%=      5-min Rain = 0
KPD3 101758Z 17008KT 19/07 A2993 RMK A01 T01890074  RH  047%=      5-min Rain = 0
KPD3 101759Z 15006KT 19/07 A2993 RMK A01 T01870073  RH  047%=      5-min Rain = 0
KPD3 101800Z 16007KT 19/07 A2993 RMK A01 T01870073  RH  048%=      5-min Rain = 0
KPD3 101801Z 17008KT 19/07 A2993 RMK A01 T01870074  RH  048%=      5-min Rain = 0
KPD3 101802Z 16008KT 19/07 A2993 RMK A01 T01870073  RH  048%=      5-min Rain = 0
KPD3 101803Z 16007KT 19/07 A2992 RMK A01 T01860073  RH  048%=      5-min Rain = 0
KPD3 101804Z 18007KT 19/07 A2992 RMK A01 T01870074  RH  048%=      5-min Rain = 0
KPD3 101805Z 17007KT 19/07 A2992 RMK A01 T01880073  RH  047%=      5-min Rain = 0
KPD3 101806Z 19007KT 19/07 A2992 RMK A01 T01880073  RH  047%=      5-min Rain = 0
KPD3 101807Z 19006KT 19/07 A2992 RMK A01 T01880072  RH  047%=      5-min Rain = 0
KPD3 101808Z 20007KT 19/07 A2992 RMK A01 T01880073  RH  047%=      5-min Rain = 0
KPD3 101809Z 19005KT 19/07 A2992 RMK A01 T01880070  RH  046%=      5-min Rain = 0
KPD3 101810Z 20005KT 19/07 A2992 RMK A01 T01880071  RH  047%=      5-min Rain = 0
KPD3 101811Z 19006KT 19/07 A2992 RMK A01 T01880071  RH  047%=      5-min Rain = 0
KPD3 101812Z 19006KT 19/07 A2992 RMK A01 T01870070  RH  046%=      5-min Rain = 0
KPD3 101813Z 18006KT 19/07 A2992 RMK A01 T01870071  RH  047%=      5-min Rain = 0
KPD3 101814Z 18006KT 19/07 A2992 RMK A01 T01880071  RH  046%=      5-min Rain = 0
KPD3 101815Z 18007KT 19/07 A2992 RMK A01 T01890071  RH  046%=      5-min Rain = 0
KPD3 101816Z 19005KT 19/07 A2992 RMK A01 T01890070  RH  046%=      5-min Rain = 0
KPD3 101817Z 18005KT 19/07 A2992 RMK A01 T01900072  RH  046%=      5-min Rain = 0
KPD3 101818Z 19005KT 19/07 A2992 RMK A01 T01910070  RH  045%=      5-min Rain = 0
KPD3 101819Z 20005KT 19/07 A2992 RMK A01 T01920069  RH  045%=      5-min Rain = 0
KPD3 101820Z 17006KT 19/07 A2992 RMK A01 T01920068  RH  045%=      5-min Rain = 0
KPD3 101821Z 18004KT 19/07 A2992 RMK A01 T01920071  RH  045%=      5-min Rain = 0
KPD3 101822Z 16004KT 19/07 A2991 RMK A01 T01940071  RH  045%=      5-min Rain = 0
KPD3 101823Z 17003KT 20/07 A2991 RMK A01 T01960071  RH  044%=      5-min Rain = 0
KPD3 101824Z 18004KT 20/07 A2991 RMK A01 T01970068  RH  043%=      5-min Rain = 0
KPD3 101825Z 18004KT 20/07 A2991 RMK A01 T01980068  RH  043%=      5-min Rain = 0
KPD3 101826Z 18006KT 20/07 A2991 RMK A01 T01990070  RH  043%=      5-min Rain = 0
KPD3 101827Z 17005KT 20/07 A2991 RMK A01 T01990069  RH  043%=      5-min Rain = 0
KPD3 101828Z 16003KT 20/07 A2991 RMK A01 T02000067  RH  042%=      5-min Rain = 0
KPD3 101829Z 18004KT 20/07 A2991 RMK A01 T02000067  RH  042%=      5-min Rain = 0
KPD3 101830Z 20005KT 20/07 A2991 RMK A01 T02020067  RH  042%=      5-min Rain = 0
KPD3 101831Z 22005KT 20/07 A2991 RMK A01 T02030066  RH  041%=      5-min Rain = 0
KPD3 101832Z 24005KT 21/06 A2991 RMK A01 T02050063  RH  039%=      5-min Rain = 0
KPD3 101833Z 22003KT 21/06 A2991 RMK A01 T02050059  RH  039%=      5-min Rain = 0
KPD3 101834Z 17003KT 20/06 A299 RMK A01 T02040061  RH  039%=      5-min Rain = 0
KPD3 101835Z 12000KT 20/06 A299 RMK A01 T02030060  RH  039%=      5-min Rain = 0
KPD3 101836Z 24002KT 20/06 A299 RMK A01 T02030060  RH  039%=      5-min Rain = 0
KPD3 101837Z 24003KT 20/06 A299 RMK A01 T02030060  RH  039%=      5-min Rain = 0
KPD3 101838Z 25005KT 20/06 A299 RMK A01 T02030059  RH  039%=      5-min Rain = 0
KPD3 101839Z 25005KT 20/06 A299 RMK A01 T02030055  RH  038%=      5-min Rain = 0
KPD3 101840Z 22005KT 20/05 A299 RMK A01 T02040052  RH  037%=      5-min Rain = 0
KPD3 101841Z 24006KT 21/05 A299 RMK A01 T02050051  RH  036%=      5-min Rain = 0
KPD3 101842Z 23009KT 21/05 A299 RMK A01 T02050048  RH  035%=      5-min Rain = 0
KPD3 101843Z 24007KT 21/05 A299 RMK A01 T02050047  RH  035%=      5-min Rain = 0
KPD3 101844Z 22009KT 21/05 A299 RMK A01 T02050047  RH  036%=      5-min Rain = 0
KPD3 101845Z 22007KT 20/05 A299 RMK A01 T02040048  RH  036%=      5-min Rain = 0
KPD3 101846Z 24006KT 21/05 A2989 RMK A01 T02050048  RH  036%=      5-min Rain = 0
KPD3 101847Z 24006KT 21/05 A2989 RMK A01 T02050049  RH  036%=      5-min Rain = 0
KPD3 101848Z 24009KT 21/05 A2989 RMK A01 T02060047  RH  035%=      5-min Rain = 0
KPD3 101849Z 24006KT 21/05 A2989 RMK A01 T02060046  RH  035%=      5-min Rain = 0
KPD3 101850Z 24006KT 21/05 A2989 RMK A01 T02060047  RH  035%=      5-min Rain = 0
KPD3 101851Z 24007KT 21/05 A2989 RMK A01 T02060047  RH  035%=      5-min Rain = 0
KPD3 101852Z 24007KT 21/05 A2989 RMK A01 T02060045  RH  035%=      5-min Rain = 0
KPD3 101853Z 25007KT 21/05 A2989 RMK A01 T02060046  RH  035%=      5-min Rain = 0
KPD3 101854Z 24008KT 21/05 A2989 RMK A01 T02060047  RH  035%=      5-min Rain = 0
KPD3 101855Z 24007KT 21/05 A2989 RMK A01 T02060047  RH  035%=      5-min Rain = 0
KPD3 101856Z 24007KT 21/05 A2989 RMK A01 T02060048  RH  035%=      5-min Rain = 0
KPD3 101857Z 24007KT 21/05 A2989 RMK A01 T02070049  RH  035%=      5-min Rain = 0
KPD3 101858Z 24008KT 21/05 A2989 RMK A01 T02070047  RH  035%=      5-min Rain = 0
KPD3 101859Z 24008KT 21/05 A2989 RMK A01 T02060048  RH  035%=      5-min Rain = 0
KPD3 101900Z 24007KT 21/05 A2988 RMK A01 T02060047  RH  035%=      5-min Rain = 0
KPD3 101901Z 24005KT 21/05 A2988 RMK A01 T02060048  RH  036%=      5-min Rain = 0
KPD3 101902Z 24007KT 21/05 A2988 RMK A01 T02070049  RH  036%=      5-min Rain = 0
KPD3 101903Z 24008KT 21/05 A2988 RMK A01 T02080049  RH  035%=      5-min Rain = 0
KPD3 101904Z 24009KT 21/05 A2988 RMK A01 T02100048  RH  035%=      5-min Rain = 0
KPD3 101905Z 23008KT 21/05 A2988 RMK A01 T02110048  RH  034%=      5-min Rain = 0
KPD3 101906Z 23007KT 21/05 A2988 RMK A01 T02120047  RH  034%=      5-min Rain = 0
KPD3 101907Z 23005KT 21/05 A2988 RMK A01 T02130049  RH  034%=      5-min Rain = 0
KPD3 101908Z 23006KT 22/05 A2988 RMK A01 T02160051  RH  034%=      5-min Rain = 0
KPD3 101909Z 22006KT 22/05 A2988 RMK A01 T02180048  RH  033%=      5-min Rain = 0
KPD3 101910Z 22006KT 22/05 A2988 RMK A01 T02200050  RH  033%=      5-min Rain = 0
KPD3 101911Z 24008KT 22/05 A2988 RMK A01 T02230051  RH  033%=      5-min Rain = 0
KPD3 101912Z 22006KT 22/05 A2988 RMK A01 T02240048  RH  032%=      5-min Rain = 0
KPD3 101913Z 22006KT 22/05 A2988 RMK A01 T02240049  RH  032%=      5-min Rain = 0
KPD3 101914Z 24005KT 22/05 A2988 RMK A01 T02230049  RH  032%=      5-min Rain = 0
KPD3 101915Z 24004KT 22/05 A2988 RMK A01 T02230047  RH  032%=      5-min Rain = 0
KPD3 101916Z 23006KT 22/05 A2988 RMK A01 T02240050  RH  032%=      5-min Rain = 0
KPD3 101917Z 22007KT 23/05 A2988 RMK A01 T02250047  RH  031%=      5-min Rain = 0
KPD3 101918Z 23007KT 23/05 A2988 RMK A01 T02250048  RH  032%=      5-min Rain = 0
KPD3 101919Z 23008KT 23/05 A2987 RMK A01 T02250048  RH  032%=      5-min Rain = 0
KPD3 101920Z 22010KT 22/04 A2987 RMK A01 T02240044  RH  031%=      5-min Rain = 0
KPD3 101921Z 23008KT 22/04 A2987 RMK A01 T02220039  RH  030%=      5-min Rain = 0
KPD3 101922Z 21007KT 22/04 A2987 RMK A01 T02200040  RH  031%=      5-min Rain = 0
KPD3 101923Z 25007KT 22/04 A2987 RMK A01 T02180039  RH  031%=      5-min Rain = 0
KPD3 101924Z 23008KT 22/04 A2987 RMK A01 T02180040  RH  031%=      5-min Rain = 0
KPD3 101925Z 25008KT 22/04 A2987 RMK A01 T02200041  RH  031%=      5-min Rain = 0
KPD3 101926Z 25008KT 22/04 A2987 RMK A01 T02220040  RH  030%=      5-min Rain = 0
KPD3 101927Z 25009KT 22/04 A2987 RMK A01 T02240041  RH  030%=      5-min Rain = 0
KPD3 101928Z 24007KT 23/04 A2987 RMK A01 T02270041  RH  030%=      5-min Rain = 0
KPD3 101929Z 23006KT 23/04 A2987 RMK A01 T02290044  RH  030%=      5-min Rain = 0
KPD3 101930Z 26008KT 23/04 A2987 RMK A01 T02320044  RH  029%=      5-min Rain = 0
KPD3 101931Z 25007KT 23/04 A2986 RMK A01 T02340042  RH  029%=      5-min Rain = 0
KPD3 101932Z 24010KT 24/04 A2986 RMK A01 T02370043  RH  028%=      5-min Rain = 0
KPD3 101933Z 25008KT 24/04 A2986 RMK A01 T02370040  RH  028%=      5-min Rain = 0
KPD3 101934Z 25008KT 24/04 A2986 RMK A01 T02360043  RH  028%=      5-min Rain = 0
KPD3 101935Z 25008KT 24/04 A2986 RMK A01 T02370043  RH  028%=      5-min Rain = 0
KPD3 101936Z 23010KT 24/04 A2986 RMK A01 T02380041  RH  028%=      5-min Rain = 0
KPD3 101937Z 21008KT 24/04 A2986 RMK A01 T02370041  RH  028%=      5-min Rain = 0
KPD3 101938Z 21009KT 24/04 A2986 RMK A01 T02360039  RH  028%=      5-min Rain = 0
KPD3 101939Z 22010KT 24/04 A2986 RMK A01 T02350039  RH  028%=      5-min Rain = 0
KPD3 101940Z 22008KT 24/04 A2986 RMK A01 T02350039  RH  028%=      5-min Rain = 0
KPD3 101941Z 22007KT 24/04 A2986 RMK A01 T02360040  RH  028%=      5-min Rain = 0
KPD3 101942Z 22009KT 24/04 A2986 RMK A01 T02370039  RH  027%=      5-min Rain = 0
KPD3 101943Z 24007KT 23/04 A2986 RMK A01 T02340037  RH  028%=      5-min Rain = 0
KPD3 101944Z 26010KT 23/04 A2986 RMK A01 T02330038  RH  028%=      5-min Rain = 0
KPD3 101945Z 26011KT 23/04 A2986 RMK A01 T02330036  RH  028%=      5-min Rain = 0
KPD3 101946Z 26009KT 23/04 A2986 RMK A01 T02310035  RH  028%=      5-min Rain = 0
KPD3 101947Z 25010KT 23/04 A2986 RMK A01 T02300036  RH  028%=      5-min Rain = 0
KPD3 101948Z 25011KT 23/03 A2986 RMK A01 T02290033  RH  028%=      5-min Rain = 0
KPD3 101949Z 24008KT 23/03 A2986 RMK A01 T02280033  RH  028%=      5-min Rain = 0
KPD3 101950Z 25008KT 23/03 A2986 RMK A01 T02260034  RH  028%=      5-min Rain = 0
KPD3 101951Z 24008KT 23/03 A2986 RMK A01 T02260034  RH  028%=      5-min Rain = 0
KPD3 101952Z 24009KT 23/03 A2986 RMK A01 T02250033  RH  028%=      5-min Rain = 0
KPD3 101953Z 23007KT 23/03 A2986 RMK A01 T02260032  RH  028%=      5-min Rain = 0
KPD3 101954Z 24008KT 23/03 A2986 RMK A01 T02250033  RH  028%=      5-min Rain = 0
KPD3 101955Z 25009KT 23/03 A2986 RMK A01 T02260032  RH  028%=      5-min Rain = 0
KPD3 101956Z 24009KT 23/03 A2986 RMK A01 T02260032  RH  028%=      5-min Rain = 0
KPD3 101957Z 23007KT 23/03 A2985 RMK A01 T02250031  RH  028%=      5-min Rain = 0
KPD3 101958Z 24008KT 23/03 A2985 RMK A01 T02250030  RH  028%=      5-min Rain = 0
KPD3 101959Z 24008KT 23/03 A2985 RMK A01 T02250031  RH  028%=      5-min Rain = 0
KPD3 102000Z 25008KT 23/03 A2985 RMK A01 T02250031  RH  028%=      5-min Rain = 0
KPD3 102001Z 25009KT 23/03 A2985 RMK A01 T02250030  RH  028%=      5-min Rain = 0
KPD3 102002Z 24008KT 23/03 A2985 RMK A01 T02250030  RH  028%=      5-min Rain = 0
KPD3 102003Z 25008KT 23/03 A2985 RMK A01 T02250030  RH  028%=      5-min Rain = 0
KPD3 102004Z 24007KT 23/03 A2985 RMK A01 T02250030  RH  028%=      5-min Rain = 0
KPD3 102005Z 23007KT 23/03 A2985 RMK A01 T02250030  RH  028%=      5-min Rain = 0
KPD3 102006Z 24007KT 23/03 A2985 RMK A01 T02250030  RH  028%=      5-min Rain = 0
KPD3 102007Z 25007KT 23/03 A2985 RMK A01 T02250032  RH  028%=      5-min Rain = 0
KPD3 102008Z 24008KT 23/03 A2985 RMK A01 T02250030  RH  028%=      5-min Rain = 0
KPD3 102009Z 25007KT 23/03 A2985 RMK A01 T02250031  RH  028%=      5-min Rain = 0
KPD3 102010Z 25007KT 23/03 A2985 RMK A01 T02250032  RH  028%=      5-min Rain = 0
KPD3 102011Z 28006KT 23/03 A2985 RMK A01 T02250033  RH  028%=      5-min Rain = 0
KPD3 102012Z 29007KT 23/03 A2985 RMK A01 T02250033  RH  028%=      5-min Rain = 0
KPD3 102013Z 29009KT 22/03 A2985 RMK A01 T02240032  RH  028%=      5-min Rain = 0
KPD3 102014Z 29008KT 22/03 A2984 RMK A01 T02230032  RH  029%=      5-min Rain = 0
KPD3 102015Z 28007KT 22/03 A2984 RMK A01 T02220032  RH  029%=      5-min Rain = 0
KPD3 102016Z 28008KT 22/03 A2984 RMK A01 T02220030  RH  028%=      5-min Rain = 0
KPD3 102017Z 28007KT 22/03 A2984 RMK A01 T02210031  RH  029%=      5-min Rain = 0
KPD3 102018Z 28007KT 22/03 A2984 RMK A01 T02210031  RH  029%=      5-min Rain = 0
KPD3 102019Z 28007KT 22/03 A2984 RMK A01 T02210029  RH  028%=      5-min Rain = 0
KPD3 102020Z 27007KT 22/03 A2984 RMK A01 T02210030  RH  029%=      5-min Rain = 0
KPD3 102021Z 27008KT 22/03 A2984 RMK A01 T02210030  RH  028%=      5-min Rain = 0
KPD3 102022Z 28008KT 22/03 A2984 RMK A01 T02210029  RH  028%=      5-min Rain = 0
KPD3 102023Z 28007KT 22/03 A2984 RMK A01 T02210029  RH  028%=      5-min Rain = 0
KPD3 102024Z 27006KT 22/03 A2984 RMK A01 T02210031  RH  029%=      5-min Rain = 0
KPD3 102025Z 28007KT 22/03 A2984 RMK A01 T02220032  RH  029%=      5-min Rain = 0
KPD3 102026Z 28005KT 22/03 A2984 RMK A01 T02220030  RH  028%=      5-min Rain = 0
KPD3 102027Z 29006KT 22/03 A2984 RMK A01 T02230033  RH  029%=      5-min Rain = 0
KPD3 102028Z 29007KT 22/03 A2984 RMK A01 T02240032  RH  028%=      5-min Rain = 0
KPD3 102029Z 28006KT 23/03 A2984 RMK A01 T02260033  RH  028%=      5-min Rain = 0
KPD3 102030Z 30007KT 23/03 A2984 RMK A01 T02290033  RH  028%=      5-min Rain = 0
KPD3 102031Z 29007KT 23/03 A2984 RMK A01 T02310033  RH  027%=      5-min Rain = 0
KPD3 102032Z 29007KT 23/03 A2984 RMK A01 T02320033  RH  027%=      5-min Rain = 0
KPD3 102033Z 28007KT 23/03 A2984 RMK A01 T02330032  RH  027%=      5-min Rain = 0
KPD3 102034Z 29006KT 23/03 A2984 RMK A01 T02340033  RH  027%=      5-min Rain = 0
KPD3 102035Z 30006KT 24/04 A2984 RMK A01 T02370036  RH  027%=      5-min Rain = 0
KPD3 102036Z 30007KT 24/03 A2984 RMK A01 T02390032  RH  026%=      5-min Rain = 0
KPD3 102037Z 31007KT 24/03 A2984 RMK A01 T02380031  RH  026%=      5-min Rain = 0
KPD3 102038Z 30007KT 24/03 A2984 RMK A01 T02370033  RH  026%=      5-min Rain = 0
KPD3 102039Z 29009KT 24/03 A2984 RMK A01 T02380033  RH  026%=      5-min Rain = 0
KPD3 102040Z 30008KT 24/03 A2983 RMK A01 T02380032  RH  026%=      5-min Rain = 0
KPD3 102041Z 31007KT 24/03 A2983 RMK A01 T02390034  RH  026%=      5-min Rain = 0
KPD3 102042Z 31008KT 24/03 A2983 RMK A01 T02400034  RH  026%=      5-min Rain = 0
KPD3 102043Z 30010KT 24/04 A2983 RMK A01 T02400035  RH  026%=      5-min Rain = 0
KPD3 102044Z 29008KT 24/03 A2983 RMK A01 T02400033  RH  026%=      5-min Rain = 0
KPD3 102045Z 30005KT 24/03 A2983 RMK A01 T02390034  RH  026%=      5-min Rain = 0
KPD3 102046Z 30004KT 24/03 A2983 RMK A01 T02390034  RH  026%=      5-min Rain = 0
KPD3 102047Z 32008KT 24/04 A2983 RMK A01 T02400035  RH  026%=      5-min Rain = 0
KPD3 102048Z 30009KT 24/03 A2983 RMK A01 T02410034  RH  026%=      5-min Rain = 0
KPD3 102049Z 31008KT 24/03 A2983 RMK A01 T02410034  RH  026%=      5-min Rain = 0
KPD3 102050Z 31004KT 24/03 A2983 RMK A01 T02410034  RH  026%=      5-min Rain = 0
KPD3 102051Z 29004KT 24/04 A2983 RMK A01 T02410035  RH  026%=      5-min Rain = 0
KPD3 102052Z 30007KT 24/04 A2983 RMK A01 T02420036  RH  026%=      5-min Rain = 0
KPD3 102053Z 28005KT 24/04 A2983 RMK A01 T02420035  RH  026%=      5-min Rain = 0
KPD3 102054Z 30004KT 24/03 A2983 RMK A01 T02410034  RH  026%=      5-min Rain = 0
KPD3 102055Z 31004KT 24/03 A2983 RMK A01 T02410034  RH  026%=      5-min Rain = 0
KPD3 102056Z 32003KT 24/03 A2983 RMK A01 T02400033  RH  026%=      5-min Rain = 0
KPD3 102057Z 28005KT 24/04 A2983 RMK A01 T02400035  RH  026%=      5-min Rain = 0
KPD3 102058Z 29005KT 24/04 A2983 RMK A01 T02420038  RH  026%=      5-min Rain = 0
KPD3 102059Z 30004KT 24/03 A2983 RMK A01 T02440034  RH  026%=      5-min Rain = 0
KPD3 102100Z 30003KT 24/03 A2983 RMK A01 T02430031  RH  025%=      5-min Rain = 0
KPD3 102101Z 30003KT 24/03 A2983 RMK A01 T02420032  RH  026%=      5-min Rain = 0
KPD3 102102Z 27003KT 24/03 A2983 RMK A01 T02410032  RH  026%=      5-min Rain = 0
KPD3 102103Z 27006KT 24/03 A2983 RMK A01 T02420033  RH  026%=      5-min Rain = 0
KPD3 102104Z 28006KT 24/04 A2983 RMK A01 T02430035  RH  026%=      5-min Rain = 0
KPD3 102105Z 27006KT 24/03 A2983 RMK A01 T02430034  RH  026%=      5-min Rain = 0
KPD3 102106Z 27004KT 24/03 A2983 RMK A01 T02430032  RH  025%=      5-min Rain = 0
KPD3 102107Z 26002KT 24/03 A2983 RMK A01 T02420032  RH  025%=      5-min Rain = 0
KPD3 102108Z 28001KT 24/03 A2982 RMK A01 T02410032  RH  026%=      5-min Rain = 0
KPD3 102109Z 29002KT 24/03 A2982 RMK A01 T02410033  RH  026%=      5-min Rain = 0
KPD3 102110Z 28002KT 24/03 A2982 RMK A01 T02420033  RH  026%=      5-min Rain = 0
KPD3 102111Z 28002KT 24/04 A2982 RMK A01 T02430035  RH  026%=      5-min Rain = 0
KPD3 102112Z 25004KT 25/04 A2982 RMK A01 T02450036  RH  026%=      5-min Rain = 0
KPD3 102113Z 26003KT 25/04 A2982 RMK A01 T02460035  RH  025%=      5-min Rain = 0
KPD3 102114Z 30003KT 25/04 A2982 RMK A01 T02470035  RH  025%=      5-min Rain = 0
KPD3 102115Z 29003KT 25/04 A2982 RMK A01 T02470036  RH  025%=      5-min Rain = 0
KPD3 102116Z 30004KT 25/04 A2982 RMK A01 T02470035  RH  025%=      5-min Rain = 0
KPD3 102117Z 30005KT 25/03 A2982 RMK A01 T02470034  RH  025%=      5-min Rain = 0
KPD3 102118Z 27005KT 25/03 A2982 RMK A01 T02460032  RH  025%=      5-min Rain = 0
KPD3 102119Z 26003KT 24/03 A2982 RMK A01 T02440030  RH  025%=      5-min Rain = 0
KPD3 102120Z 25005KT 24/03 A2982 RMK A01 T02430033  RH  025%=      5-min Rain = 0
KPD3 102121Z 24005KT 24/04 A2982 RMK A01 T02440035  RH  026%=      5-min Rain = 0
KPD3 102122Z 27004KT 25/03 A2982 RMK A01 T02450034  RH  025%=      5-min Rain = 0
KPD3 102123Z 28003KT 25/04 A2982 RMK A01 T02460036  RH  026%=      5-min Rain = 0
KPD3 102124Z 27004KT 25/03 A2982 RMK A01 T02470034  RH  025%=      5-min Rain = 0
KPD3 102125Z 26002KT 25/03 A2982 RMK A01 T02480033  RH  025%=      5-min Rain = 0
KPD3 102126Z 32003KT 25/03 A2982 RMK A01 T02490033  RH  025%=      5-min Rain = 0
KPD3 102127Z 28005KT 25/03 A2982 RMK A01 T02490033  RH  025%=      5-min Rain = 0
KPD3 102128Z 26006KT 25/03 A2982 RMK A01 T02480033  RH  025%=      5-min Rain = 0
KPD3 102129Z 26005KT 25/03 A2982 RMK A01 T02480033  RH  025%=      5-min Rain = 0
KPD3 102130Z 26007KT 25/03 A2982 RMK A01 T02480032  RH  025%=      5-min Rain = 0
KPD3 102131Z 26005KT 25/03 A2982 RMK A01 T02480033  RH  025%=      5-min Rain = 0
KPD3 102132Z 25005KT 25/03 A2982 RMK A01 T02480032  RH  025%=      5-min Rain = 0
KPD3 102133Z 24004KT 25/03 A2982 RMK A01 T02470032  RH  025%=      5-min Rain = 0
KPD3 102134Z 26003KT 25/03 A2982 RMK A01 T02460031  RH  025%=      5-min Rain = 0
KPD3 102135Z 23002KT 25/03 A2982 RMK A01 T02460030  RH  025%=      5-min Rain = 0
KPD3 102136Z 26002KT 25/03 A2982 RMK A01 T02460032  RH  025%=      5-min Rain = 0
KPD3 102137Z 29002KT 25/03 A2982 RMK A01 T02470032  RH  025%=      5-min Rain = 0
KPD3 102138Z 29002KT 25/03 A2982 RMK A01 T02490031  RH  024%=      5-min Rain = 0
KPD3 102139Z 26002KT 25/03 A2981 RMK A01 T02490031  RH  024%=      5-min Rain = 0
KPD3 102140Z 27003KT 25/03 A2981 RMK A01 T02500033  RH  024%=      5-min Rain = 0
KPD3 102141Z 29003KT 25/03 A2981 RMK A01 T02510033  RH  024%=      5-min Rain = 0
KPD3 102142Z 27003KT 25/03 A2981 RMK A01 T02510032  RH  024%=      5-min Rain = 0
KPD3 102143Z 29003KT 25/03 A2981 RMK A01 T02500031  RH  024%=      5-min Rain = 0
KPD3 102144Z 29003KT 25/03 A2981 RMK A01 T02480031  RH  024%=      5-min Rain = 0
KPD3 102145Z 29002KT 25/03 A2981 RMK A01 T02480033  RH  025%=      5-min Rain = 0
KPD3 102146Z 29002KT 25/03 A2981 RMK A01 T02490034  RH  025%=      5-min Rain = 0
KPD3 102147Z 28005KT 25/03 A2981 RMK A01 T02500031  RH  024%=      5-min Rain = 0
KPD3 102148Z 23005KT 25/03 A2981 RMK A01 T02510034  RH  024%=      5-min Rain = 0
KPD3 102149Z 23003KT 25/03 A2981 RMK A01 T02520033  RH  024%=      5-min Rain = 0
KPD3 102150Z 26005KT 25/03 A2981 RMK A01 T02520032  RH  024%=      5-min Rain = 0
KPD3 102151Z 26003KT 25/03 A2981 RMK A01 T02520031  RH  024%=      5-min Rain = 0
KPD3 102152Z 26004KT 25/03 A2981 RMK A01 T02520031  RH  024%=      5-min Rain = 0
KPD3 102153Z 28003KT 25/03 A2981 RMK A01 T02520029  RH  023%=      5-min Rain = 0
KPD3 102154Z 26005KT 25/03 A2981 RMK A01 T02520031  RH  024%=      5-min Rain = 0
KPD3 102155Z 26005KT 25/03 A2981 RMK A01 T02530030  RH  024%=      5-min Rain = 0
KPD3 102156Z 24004KT 25/03 A2981 RMK A01 T02530031  RH  024%=      5-min Rain = 0
KPD3 102157Z 24004KT 25/03 A2981 RMK A01 T02540033  RH  024%=      5-min Rain = 0
KPD3 102158Z 23006KT 26/03 A2981 RMK A01 T02550033  RH  024%=      5-min Rain = 0
KPD3 102159Z 24004KT 26/03 A2981 RMK A01 T02550033  RH  024%=      5-min Rain = 0
KPD3 102200Z 28005KT 26/03 A2981 RMK A01 T02550032  RH  024%=      5-min Rain = 0
KPD3 102201Z 29004KT 26/03 A2981 RMK A01 T02550032  RH  024%=      5-min Rain = 0
KPD3 102202Z 29005KT 25/03 A2981 RMK A01 T02540031  RH  023%=      5-min Rain = 0
KPD3 102203Z 29005KT 25/03 A2981 RMK A01 T02530031  RH  024%=      5-min Rain = 0
KPD3 102204Z 29005KT 25/03 A2981 RMK A01 T02530033  RH  024%=      5-min Rain = 0
KPD3 102205Z 28005KT 25/03 A2981 RMK A01 T02540032  RH  024%=      5-min Rain = 0
KPD3 102206Z 26005KT 25/04 A2981 RMK A01 T02540035  RH  024%=      5-min Rain = 0
KPD3 102207Z 26004KT 26/03 A2981 RMK A01 T02560032  RH  024%=      5-min Rain = 0
KPD3 102208Z 24004KT 26/03 A2981 RMK A01 T02550033  RH  024%=      5-min Rain = 0
KPD3 102209Z 24005KT 26/03 A2981 RMK A01 T02560034  RH  024%=      5-min Rain = 0
KPD3 102210Z 25006KT 26/03 A2981 RMK A01 T02550033  RH  024%=      5-min Rain = 0
KPD3 102211Z 26005KT 26/03 A2981 RMK A01 T02550034  RH  024%=      5-min Rain = 0
KPD3 102212Z 26003KT 25/03 A2981 RMK A01 T02540033  RH  024%=      5-min Rain = 0
KPD3 102213Z 27003KT 25/03 A2981 RMK A01 T02540034  RH  024%=      5-min Rain = 0
KPD3 102214Z 27004KT 25/03 A2981 RMK A01 T02540034  RH  024%=      5-min Rain = 0
KPD3 102215Z 28004KT 25/03 A2981 RMK A01 T02540033  RH  024%=      5-min Rain = 0
KPD3 102216Z 28003KT 25/03 A2981 RMK A01 T02540034  RH  024%=      5-min Rain = 0
KPD3 102217Z 28003KT 25/03 A2981 RMK A01 T02540034  RH  024%=      5-min Rain = 0
KPD3 102218Z 29005KT 25/04 A2981 RMK A01 T02530035  RH  024%=      5-min Rain = 0
KPD3 102219Z 29004KT 25/03 A2981 RMK A01 T02510034  RH  024%=      5-min Rain = 0
KPD3 102220Z 28004KT 25/04 A2981 RMK A01 T02500035  RH  025%=      5-min Rain = 0
KPD3 102221Z 28004KT 25/04 A298 RMK A01 T02490036  RH  025%=      5-min Rain = 0
KPD3 102222Z 28005KT 25/04 A298 RMK A01 T02480035  RH  025%=      5-min Rain = 0
KPD3 102223Z 27003KT 25/03 A2981 RMK A01 T02460033  RH  025%=      5-min Rain = 0
KPD3 102224Z 27005KT 25/04 A2981 RMK A01 T02450035  RH  026%=      5-min Rain = 0
KPD3 102225Z 27005KT 24/03 A2981 RMK A01 T02440034  RH  026%=      5-min Rain = 0
KPD3 102226Z 28004KT 24/03 A2981 RMK A01 T02430034  RH  026%=      5-min Rain = 0
KPD3 102227Z 27004KT 24/03 A2981 RMK A01 T02410034  RH  026%=      5-min Rain = 0
KPD3 102228Z 27004KT 24/03 A2981 RMK A01 T02410034  RH  026%=      5-min Rain = 0
KPD3 102229Z 27004KT 24/04 A2981 RMK A01 T02390035  RH  026%=      5-min Rain = 0
KPD3 102230Z 29005KT 24/04 A2981 RMK A01 T02380035  RH  027%=      5-min Rain = 0
KPD3 102231Z 30004KT 24/04 A2981 RMK A01 T02360035  RH  027%=      5-min Rain = 0
KPD3 102232Z 30004KT 24/04 A298 RMK A01 T02350035  RH  027%=      5-min Rain = 0
KPD3 102233Z 30004KT 23/04 A298 RMK A01 T02340035  RH  027%=      5-min Rain = 0
KPD3 102234Z 30004KT 23/03 A298 RMK A01 T02330034  RH  027%=      5-min Rain = 0
KPD3 102235Z 29004KT 23/03 A298 RMK A01 T02320034  RH  028%=      5-min Rain = 0
KPD3 102236Z 29004KT 23/04 A2981 RMK A01 T02310035  RH  028%=      5-min Rain = 0
KPD3 102237Z 29004KT 23/04 A2981 RMK A01 T02300036  RH  028%=      5-min Rain = 0
KPD3 102238Z 29004KT 23/04 A2981 RMK A01 T02290036  RH  028%=      5-min Rain = 0
KPD3 102239Z 28004KT 23/04 A298 RMK A01 T02270037  RH  029%=      5-min Rain = 0
KPD3 102240Z 28003KT 23/04 A298 RMK A01 T02260036  RH  029%=      5-min Rain = 0
KPD3 102241Z 28003KT 23/04 A298 RMK A01 T02250036  RH  029%=      5-min Rain = 0
KPD3 102242Z 28003KT 23/04 A298 RMK A01 T02250036  RH  029%=      5-min Rain = 0
KPD3 102243Z 28003KT 23/04 A298 RMK A01 T02250036  RH  029%=      5-min Rain = 0
KPD3 102244Z 28003KT 23/04 A298 RMK A01 T02250036  RH  029%=      5-min Rain = 0
KPD3 102245Z 28003KT 22/04 A298 RMK A01 T02240035  RH  029%=      5-min Rain = 0
KPD3 102246Z 28003KT 22/04 A2981 RMK A01 T02240035  RH  029%=      5-min Rain = 0
KPD3 102247Z 29003KT 22/03 A2981 RMK A01 T02240034  RH  029%=      5-min Rain = 0
KPD3 102248Z 29003KT 22/04 A2981 RMK A01 T02240035  RH  029%=      5-min Rain = 0
KPD3 102249Z 29003KT 22/03 A2981 RMK A01 T02240034  RH  029%=      5-min Rain = 0
KPD3 102250Z 28003KT 22/03 A2981 RMK A01 T02240033  RH  029%=      5-min Rain = 0
KPD3 102251Z 29003KT 22/03 A2981 RMK A01 T02240034  RH  029%=      5-min Rain = 0
KPD3 102252Z 29003KT 23/03 A2981 RMK A01 T02250034  RH  029%=      5-min Rain = 0
KPD3 102253Z 30003KT 22/03 A2981 RMK A01 T02240034  RH  029%=      5-min Rain = 0
KPD3 102254Z 29002KT 22/03 A2981 RMK A01 T02240034  RH  029%=      5-min Rain = 0
KPD3 102255Z 30002KT 22/03 A2981 RMK A01 T02230034  RH  029%=      5-min Rain = 0
KPD3 102256Z 31002KT 22/03 A298 RMK A01 T02230033  RH  029%=      5-min Rain = 0
KPD3 102257Z 32002KT 22/03 A298 RMK A01 T02230033  RH  029%=      5-min Rain = 0
KPD3 102258Z 31002KT 22/03 A2981 RMK A01 T02230033  RH  029%=      5-min Rain = 0
KPD3 102259Z 31003KT 22/03 A2981 RMK A01 T02230033  RH  029%=      5-min Rain = 0
KPD3 102300Z 31003KT 22/03 A2981 RMK A01 T02220033  RH  029%=      5-min Rain = 0
KPD3 102301Z 31002KT 22/03 A2981 RMK A01 T02220033  RH  029%=      5-min Rain = 0
KPD3 102302Z 31003KT 22/03 A2981 RMK A01 T02220034  RH  029%=      5-min Rain = 0
KPD3 102303Z 30003KT 22/03 A2981 RMK A01 T02210034  RH  029%=      5-min Rain = 0
KPD3 102304Z 31002KT 22/03 A2981 RMK A01 T02210034  RH  029%=      5-min Rain = 0
KPD3 102305Z 31002KT 22/03 A2981 RMK A01 T02200034  RH  030%=      5-min Rain = 0
KPD3 102306Z 32002KT 22/04 A2981 RMK A01 T02200035  RH  030%=      5-min Rain = 0
KPD3 102307Z 33002KT 22/04 A2981 RMK A01 T02180036  RH  030%=      5-min Rain = 0
KPD3 102308Z 34002KT 22/04 A2981 RMK A01 T02170037  RH  031%=      5-min Rain = 0
KPD3 102309Z 35003KT 21/04 A2981 RMK A01 T02140039  RH  032%=      5-min Rain = 0
KPD3 102310Z 35003KT 21/04 A2981 RMK A01 T02100040  RH  033%=      5-min Rain = 0
KPD3 102311Z 34004KT 21/04 A298 RMK A01 T02060041  RH  034%=      5-min Rain = 0
KPD3 102312Z 36003KT 20/04 A298 RMK A01 T02030041  RH  035%=      5-min Rain = 0
KPD3 102313Z 00003KT 20/04 A298 RMK A01 T02020041  RH  035%=      5-min Rain = 0
KPD3 102314Z 00003KT 20/04 A298 RMK A01 T02010040  RH  035%=      5-min Rain = 0
KPD3 102315Z 01003KT 20/04 A298 RMK A01 T02010040  RH  034%=      5-min Rain = 0
KPD3 102316Z 00003KT 20/04 A298 RMK A01 T02010041  RH  035%=      5-min Rain = 0
KPD3 102317Z 00003KT 20/04 A298 RMK A01 T01990040  RH  035%=      5-min Rain = 0
KPD3 102318Z 00003KT 20/04 A298 RMK A01 T01990040  RH  035%=      5-min Rain = 0
KPD3 102319Z 01003KT 20/04 A298 RMK A01 T01980040  RH  035%=      5-min Rain = 0
KPD3 102320Z 01003KT 20/04 A298 RMK A01 T01970041  RH  036%=      5-min Rain = 0
KPD3 102321Z 01003KT 19/04 A298 RMK A01 T01940041  RH  036%=      5-min Rain = 0
KPD3 102322Z 01004KT 19/04 A298 RMK A01 T01920040  RH  037%=      5-min Rain = 0
KPD3 102323Z 02004KT 19/04 A298 RMK A01 T01900040  RH  037%=      5-min Rain = 0
KPD3 102324Z 02004KT 19/04 A298 RMK A01 T01900040  RH  037%=      5-min Rain = 0
KPD3 102325Z 03005KT 19/04 A298 RMK A01 T01880040  RH  037%=      5-min Rain = 0
KPD3 102326Z 03005KT 19/04 A298 RMK A01 T01860040  RH  038%=      5-min Rain = 0
KPD3 102327Z 03005KT 19/04 A298 RMK A01 T01850041  RH  039%=      5-min Rain = 0
KPD3 102328Z 03005KT 18/04 A298 RMK A01 T01820041  RH  039%=      5-min Rain = 0
KPD3 102329Z 04004KT 18/04 A298 RMK A01 T01800040  RH  039%=      5-min Rain = 0
KPD3 102330Z 04004KT 18/04 A298 RMK A01 T01790040  RH  040%=      5-min Rain = 0
KPD3 102331Z 04004KT 18/04 A298 RMK A01 T01780039  RH  040%=      5-min Rain = 0
KPD3 102332Z 04005KT 18/04 A298 RMK A01 T01800038  RH  039%=      5-min Rain = 0
KPD3 102333Z 04005KT 18/04 A298 RMK A01 T01820038  RH  039%=      5-min Rain = 0
KPD3 102334Z 04005KT 18/04 A298 RMK A01 T01820038  RH  038%=      5-min Rain = 0
KPD3 102335Z 03005KT 18/04 A298 RMK A01 T01830039  RH  038%=      5-min Rain = 0
KPD3 102336Z 03005KT 18/04 A298 RMK A01 T01820039  RH  039%=      5-min Rain = 0
KPD3 102337Z 03005KT 18/04 A298 RMK A01 T01800039  RH  039%=      5-min Rain = 0
KPD3 102338Z 03005KT 18/04 A298 RMK A01 T01790039  RH  039%=      5-min Rain = 0
KPD3 102339Z 03005KT 18/04 A298 RMK A01 T01770039  RH  040%=      5-min Rain = 0
KPD3 102340Z 03005KT 18/04 A298 RMK A01 T01750039  RH  041%=      5-min Rain = 0
KPD3 102341Z 02005KT 17/04 A298 RMK A01 T01730039  RH  041%=      5-min Rain = 0
KPD3 102342Z 02005KT 17/04 A298 RMK A01 T01700039  RH  042%=      5-min Rain = 0
KPD3 102343Z 02005KT 17/04 A298 RMK A01 T01680039  RH  042%=      5-min Rain = 0
KPD3 102344Z 02005KT 17/04 A298 RMK A01 T01670040  RH  043%=      5-min Rain = 0
KPD3 102345Z 02005KT 17/04 A298 RMK A01 T01660040  RH  043%=      5-min Rain = 0
KPD3 102346Z 02006KT 17/04 A298 RMK A01 T01660041  RH  043%=      5-min Rain = 0
KPD3 102347Z 04006KT 17/04 A298 RMK A01 T01660041  RH  043%=      5-min Rain = 0
KPD3 102348Z 04006KT 17/04 A298 RMK A01 T01650041  RH  044%=      5-min Rain = 0
KPD3 102349Z 03006KT 16/04 A298 RMK A01 T01630041  RH  044%=      5-min Rain = 0
KPD3 102350Z 03005KT 16/04 A298 RMK A01 T01610041  RH  045%=      5-min Rain = 0
KPD3 102351Z 03005KT 16/04 A298 RMK A01 T01590041  RH  045%=      5-min Rain = 0
KPD3 102352Z 02005KT 16/04 A298 RMK A01 T01570041  RH  046%=      5-min Rain = 0
KPD3 102353Z 03005KT 16/04 A298 RMK A01 T01570041  RH  046%=      5-min Rain = 0
KPD3 102354Z 03005KT 16/04 A298 RMK A01 T01560041  RH  046%=      5-min Rain = 0
KPD3 102355Z 03005KT 16/04 A298 RMK A01 T01560040  RH  046%=      5-min Rain = 0
KPD3 102356Z 03005KT 16/04 A298 RMK A01 T01580040  RH  045%=      5-min Rain = 0
KPD3 102357Z 03005KT 16/04 A298 RMK A01 T01590039  RH  045%=      5-min Rain = 0
KPD3 102358Z 03004KT 16/04 A298 RMK A01 T01610040  RH  044%=      5-min Rain = 0
KPD3 102359Z 03004KT 16/04 A298 RMK A01 T01610039  RH  044%=      5-min Rain = 0
KPD3 110000Z 02005KT 16/04 A298 RMK A01 T01610039  RH  044%=      5-min Rain = 0
KPD3 110001Z 02005KT 16/04 A298 RMK A01 T01580039  RH  045%=      5-min Rain = 0
KPD3 110002Z 03005KT 16/04 A298 RMK A01 T01560038  RH  045%=      5-min Rain = 0
KPD3 110003Z 03005KT 16/04 A298 RMK A01 T01560038  RH  046%=      5-min Rain = 0
KPD3 110004Z 03005KT 16/04 A298 RMK A01 T01570039  RH  045%=      5-min Rain = 0
KPD3 110005Z 02005KT 16/04 A298 RMK A01 T01570038  RH  045%=      5-min Rain = 0
KPD3 110006Z 02005KT 16/04 A298 RMK A01 T01570038  RH  045%=      5-min Rain = 0
KPD3 110007Z 03005KT 16/04 A298 RMK A01 T01570038  RH  045%=      5-min Rain = 0
KPD3 110008Z 03004KT 16/04 A298 RMK A01 T01580038  RH  045%=      5-min Rain = 0
KPD3 110009Z 02005KT 16/04 A298 RMK A01 T01590038  RH  044%=      5-min Rain = 0
KPD3 110010Z 01005KT 16/04 A298 RMK A01 T01590037  RH  044%=      5-min Rain = 0
KPD3 110011Z 01005KT 16/04 A298 RMK A01 T01580037  RH  044%=      5-min Rain = 0
KPD3 110012Z 00004KT 15/04 A298 RMK A01 T01530036  RH  045%=      5-min Rain = 0
KPD3 110013Z 36004KT 15/04 A298 RMK A01 T01480035  RH  047%=      5-min Rain = 0
KPD3 110014Z 00005KT 14/03 A298 RMK A01 T01430034  RH  048%=      5-min Rain = 0
KPD3 110015Z 00006KT 14/04 A298 RMK A01 T01390035  RH  049%=      5-min Rain = 0
KPD3 110016Z 00005KT 14/04 A298 RMK A01 T01370035  RH  050%=      5-min Rain = 0
KPD3 110017Z 34004KT 14/04 A298 RMK A01 T01350036  RH  051%=      5-min Rain = 0
KPD3 110018Z 34004KT 13/04 A298 RMK A01 T01330036  RH  052%=      5-min Rain = 0
KPD3 110019Z 34004KT 13/04 A298 RMK A01 T01310035  RH  052%=      5-min Rain = 0
KPD3 110020Z 35004KT 13/04 A298 RMK A01 T01300036  RH  053%=      5-min Rain = 0
KPD3 110021Z 35004KT 13/04 A298 RMK A01 T01290036  RH  053%=      5-min Rain = 0
KPD3 110022Z 36004KT 13/04 A298 RMK A01 T01290036  RH  053%=      5-min Rain = 0
KPD3 110023Z 00004KT 13/04 A298 RMK A01 T01280036  RH  053%=      5-min Rain = 0
KPD3 110024Z 00004KT 13/04 A298 RMK A01 T01280036  RH  054%=      5-min Rain = 0
KPD3 110025Z 00004KT 13/04 A298 RMK A01 T01270036  RH  054%=      5-min Rain = 0
KPD3 110026Z 00004KT 13/04 A298 RMK A01 T01260035  RH  054%=      5-min Rain = 0
KPD3 110027Z 00004KT 13/04 A298 RMK A01 T01250035  RH  054%=      5-min Rain = 0
KPD3 110028Z 35004KT 13/04 A298 RMK A01 T01250035  RH  054%=      5-min Rain = 0
KPD3 110029Z 34004KT 12/04 A298 RMK A01 T01240035  RH  055%=      5-min Rain = 0
KPD3 110030Z 33005KT 12/04 A298 RMK A01 T01230035  RH  055%=      5-min Rain = 0
KPD3 110031Z 33005KT 12/03 A2981 RMK A01 T01210034  RH  056%=      5-min Rain = 0
KPD3 110032Z 33005KT 12/03 A2981 RMK A01 T01190034  RH  056%=      5-min Rain = 0
KPD3 110033Z 33006KT 12/03 A2981 RMK A01 T01180033  RH  056%=      5-min Rain = 0
KPD3 110034Z 33006KT 12/03 A2981 RMK A01 T01170034  RH  057%=      5-min Rain = 0
KPD3 110035Z 33006KT 12/03 A2981 RMK A01 T01160034  RH  057%=      5-min Rain = 0
KPD3 110036Z 34006KT 12/03 A2981 RMK A01 T01150034  RH  057%=      5-min Rain = 0
KPD3 110037Z 35005KT 12/04 A2981 RMK A01 T01150035  RH  058%=      5-min Rain = 0
KPD3 110038Z 35006KT 12/04 A2981 RMK A01 T01150035  RH  058%=      5-min Rain = 0
KPD3 110039Z 34006KT 12/04 A2981 RMK A01 T01150035  RH  058%=      5-min Rain = 0
KPD3 110040Z 34006KT 12/04 A2981 RMK A01 T01150035  RH  058%=      5-min Rain = 0
KPD3 110041Z 34005KT 11/04 A2981 RMK A01 T01140035  RH  058%=      5-min Rain = 0
KPD3 110042Z 34005KT 11/04 A2981 RMK A01 T01130035  RH  058%=      5-min Rain = 0
KPD3 110043Z 34005KT 11/04 A2981 RMK A01 T01130035  RH  059%=      5-min Rain = 0
KPD3 110044Z 34006KT 11/04 A2981 RMK A01 T01120035  RH  059%=      5-min Rain = 0
KPD3 110045Z 34006KT 11/03 A2981 RMK A01 T01120034  RH  059%=      5-min Rain = 0
KPD3 110046Z 34006KT 11/04 A2981 RMK A01 T01120035  RH  059%=      5-min Rain = 0
KPD3 110047Z 34006KT 11/04 A2981 RMK A01 T01120035  RH  059%=      5-min Rain = 0
KPD3 110048Z 34006KT 11/03 A2981 RMK A01 T01110034  RH  059%=      5-min Rain = 0
KPD3 110049Z 33006KT 11/04 A2981 RMK A01 T01110035  RH  059%=      5-min Rain = 0
KPD3 110050Z 33006KT 11/04 A2981 RMK A01 T01100035  RH  060%=      5-min Rain = 0
KPD3 110051Z 34006KT 11/04 A2981 RMK A01 T01090035  RH  060%=      5-min Rain = 0
KPD3 110052Z 34005KT 11/03 A2981 RMK A01 T01070034  RH  061%=      5-min Rain = 0
KPD3 110053Z 33005KT 11/03 A2981 RMK A01 T01060034  RH  061%=      5-min Rain = 0
KPD3 110054Z 32005KT 10/03 A2981 RMK A01 T01040033  RH  061%=      5-min Rain = 0
KPD3 110055Z 33005KT 10/03 A2981 RMK A01 T01020032  RH  062%=      5-min Rain = 0
KPD3 110056Z 33005KT 10/03 A2981 RMK A01 T01000031  RH  062%=      5-min Rain = 0
KPD3 110057Z 33005KT 10/03 A2981 RMK A01 T00990031  RH  063%=      5-min Rain = 0
KPD3 110058Z 33005KT 10/03 A2981 RMK A01 T00980031  RH  063%=      5-min Rain = 0
KPD3 110059Z 32006KT 10/03 A2981 RMK A01 T00960030  RH  064%=      5-min Rain = 0
KPD3 110100Z 31007KT 09/03 A2981 RMK A01 T00940030  RH  064%=      5-min Rain = 0
KPD3 110101Z 31007KT 09/03 A2981 RMK A01 T00920030  RH  065%=      5-min Rain = 0
KPD3 110102Z 31006KT 09/03 A2981 RMK A01 T00910030  RH  066%=      5-min Rain = 0
KPD3 110103Z 32006KT 09/03 A2981 RMK A01 T00900030  RH  066%=      5-min Rain = 0
KPD3 110104Z 33006KT 09/03 A2981 RMK A01 T00900030  RH  066%=      5-min Rain = 0
KPD3 110105Z 33005KT 09/03 A2981 RMK A01 T00910031  RH  066%=      5-min Rain = 0
KPD3 110106Z 33005KT 09/03 A2981 RMK A01 T00930031  RH  065%=      5-min Rain = 0
KPD3 110107Z 33005KT 10/03 A2981 RMK A01 T00950032  RH  065%=      5-min Rain = 0
KPD3 110108Z 33005KT 10/03 A2981 RMK A01 T00970033  RH  064%=      5-min Rain = 0
KPD3 110109Z 33005KT 10/03 A2981 RMK A01 T00980033  RH  064%=      5-min Rain = 0
KPD3 110110Z 33006KT 10/03 A2981 RMK A01 T00990033  RH  064%=      5-min Rain = 0
KPD3 110111Z 33006KT 10/03 A2981 RMK A01 T00980033  RH  064%=      5-min Rain = 0
KPD3 110112Z 32006KT 10/03 A2981 RMK A01 T00970032  RH  064%=      5-min Rain = 0
KPD3 110113Z 32008KT 10/03 A2981 RMK A01 T00960032  RH  064%=      5-min Rain = 0
KPD3 110114Z 32008KT 09/03 A2981 RMK A01 T00940031  RH  065%=      5-min Rain = 0
KPD3 110115Z 32008KT 09/03 A2981 RMK A01 T00940032  RH  065%=      5-min Rain = 0
KPD3 110116Z 32007KT 09/03 A2981 RMK A01 T00940032  RH  065%=      5-min Rain = 0
KPD3 110117Z 32007KT 10/03 A2981 RMK A01 T00950032  RH  065%=      5-min Rain = 0
KPD3 110118Z 32007KT 09/03 A2981 RMK A01 T00930031  RH  065%=      5-min Rain = 0
KPD3 110119Z 32007KT 09/03 A2981 RMK A01 T00900030  RH  066%=      5-min Rain = 0
KPD3 110120Z 32007KT 09/03 A2981 RMK A01 T00880030  RH  067%=      5-min Rain = 0
KPD3 110121Z 33008KT 09/03 A2981 RMK A01 T00880030  RH  067%=      5-min Rain = 0
KPD3 110122Z 33008KT 09/03 A2981 RMK A01 T00870029  RH  067%=      5-min Rain = 0
KPD3 110123Z 33008KT 09/03 A2981 RMK A01 T00870029  RH  067%=      5-min Rain = 0
KPD3 110124Z 32008KT 09/03 A2981 RMK A01 T00870028  RH  067%=      5-min Rain = 0
KPD3 110125Z 33008KT 09/03 A2981 RMK A01 T00870028  RH  066%=      5-min Rain = 0
KPD3 110126Z 33008KT 09/03 A2981 RMK A01 T00880028  RH  066%=      5-min Rain = 0
KPD3 110127Z 32008KT 09/03 A2981 RMK A01 T00890029  RH  066%=      5-min Rain = 0
KPD3 110128Z 32008KT 09/03 A2981 RMK A01 T00890028  RH  065%=      5-min Rain = 0
KPD3 110129Z 31007KT 09/03 A2981 RMK A01 T00890028  RH  065%=      5-min Rain = 0
KPD3 110130Z 31006KT 09/03 A2981 RMK A01 T00890027  RH  065%=      5-min Rain = 0
KPD3 110131Z 31005KT 09/03 A2981 RMK A01 T00880026  RH  065%=      5-min Rain = 0
KPD3 110132Z 31005KT 09/03 A2981 RMK A01 T00880026  RH  065%=      5-min Rain = 0
KPD3 110133Z 31003KT 09/03 A2981 RMK A01 T00870025  RH  065%=      5-min Rain = 0
KPD3 110134Z 30005KT 08/03 A2981 RMK A01 T00830025  RH  067%=      5-min Rain = 0
KPD3 110135Z 31006KT 08/03 A2981 RMK A01 T00830026  RH  067%=      5-min Rain = 0
KPD3 110136Z 30005KT 08/03 A2981 RMK A01 T00840026  RH  067%=      5-min Rain = 0
KPD3 110137Z 30006KT 09/03 A2981 RMK A01 T00850025  RH  066%=      5-min Rain = 0
KPD3 110138Z 30006KT 08/03 A2981 RMK A01 T00840025  RH  067%=      5-min Rain = 0
KPD3 110139Z 31006KT 08/03 A2981 RMK A01 T00830026  RH  067%=      5-min Rain = 0
KPD3 110140Z 31006KT 08/03 A2981 RMK A01 T00830026  RH  067%=      5-min Rain = 0
KPD3 110141Z 31006KT 08/03 A2981 RMK A01 T00820025  RH  067%=      5-min Rain = 0
KPD3 110142Z 31006KT 08/03 A2981 RMK A01 T00840025  RH  066%=      5-min Rain = 0
KPD3 110143Z 31006KT 09/03 A2981 RMK A01 T00870025  RH  065%=      5-min Rain = 0
KPD3 110144Z 31006KT 09/03 A2981 RMK A01 T00870025  RH  065%=      5-min Rain = 0
KPD3 110145Z 32006KT 09/03 A2981 RMK A01 T00870025  RH  065%=      5-min Rain = 0
KPD3 110146Z 31006KT 09/02 A2981 RMK A01 T00870024  RH  064%=      5-min Rain = 0
KPD3 110147Z 31006KT 09/02 A2981 RMK A01 T00890024  RH  064%=      5-min Rain = 0
KPD3 110148Z 31007KT 09/02 A2981 RMK A01 T00890023  RH  064%=      5-min Rain = 0
KPD3 110149Z 31007KT 09/02 A2981 RMK A01 T00900024  RH  063%=      5-min Rain = 0
KPD3 110150Z 31007KT 09/02 A2981 RMK A01 T00890024  RH  063%=      5-min Rain = 0
KPD3 110151Z 31007KT 09/02 A2981 RMK A01 T00880023  RH  064%=      5-min Rain = 0
KPD3 110152Z 31007KT 09/02 A2981 RMK A01 T00860022  RH  064%=      5-min Rain = 0
KPD3 110153Z 31007KT 09/02 A2981 RMK A01 T00850022  RH  065%=      5-min Rain = 0
KPD3 110154Z 32007KT 09/02 A2981 RMK A01 T00860022  RH  064%=      5-min Rain = 0
KPD3 110155Z 32007KT 09/02 A2981 RMK A01 T00890022  RH  063%=      5-min Rain = 0
KPD3 110156Z 32007KT 09/02 A2981 RMK A01 T00890022  RH  063%=      5-min Rain = 0
KPD3 110157Z 32008KT 09/02 A2981 RMK A01 T00880022  RH  064%=      5-min Rain = 0
KPD3 110158Z 32008KT 09/02 A2981 RMK A01 T00860023  RH  064%=      5-min Rain = 0
KPD3 110159Z 31008KT 09/02 A2981 RMK A01 T00860023  RH  065%=      5-min Rain = 0
KPD3 110200Z 32009KT 09/02 A2981 RMK A01 T00860024  RH  065%=      5-min Rain = 0
KPD3 110201Z 32009KT 09/02 A2981 RMK A01 T00860023  RH  065%=      5-min Rain = 0
KPD3 110202Z 31009KT 09/02 A2981 RMK A01 T00870023  RH  064%=      5-min Rain = 0
KPD3 110203Z 31009KT 09/02 A2981 RMK A01 T00880024  RH  064%=      5-min Rain = 0
KPD3 110204Z 31009KT 09/02 A2981 RMK A01 T00880024  RH  064%=      5-min Rain = 0
KPD3 110205Z 31009KT 09/02 A2981 RMK A01 T00890024  RH  064%=      5-min Rain = 0
KPD3 110206Z 31009KT 09/02 A2981 RMK A01 T00890024  RH  063%=      5-min Rain = 0
KPD3 110207Z 31009KT 09/02 A2981 RMK A01 T00890024  RH  063%=      5-min Rain = 0
KPD3 110208Z 32009KT 09/02 A2981 RMK A01 T00900024  RH  063%=      5-min Rain = 0
KPD3 110209Z 32009KT 09/02 A2981 RMK A01 T00910024  RH  063%=      5-min Rain = 0
KPD3 110210Z 32009KT 09/02 A2981 RMK A01 T00920024  RH  062%=      5-min Rain = 0
KPD3 110211Z 32009KT 09/02 A2981 RMK A01 T00930024  RH  062%=      5-min Rain = 0
KPD3 110212Z 32009KT 09/02 A2981 RMK A01 T00940023  RH  061%=      5-min Rain = 0
KPD3 110213Z 32009KT 10/02 A2981 RMK A01 T00950023  RH  061%=      5-min Rain = 0
KPD3 110214Z 32009KT 10/02 A2981 RMK A01 T00970023  RH  060%=      5-min Rain = 0
KPD3 110215Z 32008KT 10/02 A2981 RMK A01 T00980023  RH  059%=      5-min Rain = 0
KPD3 110216Z 32008KT 10/02 A2981 RMK A01 T00990023  RH  059%=      5-min Rain = 0
KPD3 110217Z 32008KT 10/02 A2981 RMK A01 T01010023  RH  058%=      5-min Rain = 0
KPD3 110218Z 32008KT 10/02 A2982 RMK A01 T01020023  RH  058%=      5-min Rain = 0
KPD3 110219Z 31008KT 10/02 A2982 RMK A01 T01020023  RH  058%=      5-min Rain = 0
KPD3 110220Z 31007KT 10/02 A2982 RMK A01 T01020023  RH  058%=      5-min Rain = 0
KPD3 110221Z 31007KT 10/02 A2982 RMK A01 T01020023  RH  058%=      5-min Rain = 0
KPD3 110222Z 31007KT 10/02 A2982 RMK A01 T01020023  RH  058%=      5-min Rain = 0
KPD3 110223Z 31008KT 10/02 A2982 RMK A01 T01010022  RH  058%=      5-min Rain = 0
KPD3 110224Z 31008KT 10/02 A2982 RMK A01 T01010022  RH  058%=      5-min Rain = 0
KPD3 110225Z 32008KT 10/02 A2982 RMK A01 T01010022  RH  058%=      5-min Rain = 0
KPD3 110226Z 32009KT 10/02 A2982 RMK A01 T01010022  RH  058%=      5-min Rain = 0
KPD3 110227Z 32009KT 10/02 A2982 RMK A01 T01010022  RH  058%=      5-min Rain = 0
KPD3 110228Z 32009KT 10/02 A2982 RMK A01 T01020022  RH  058%=      5-min Rain = 0
KPD3 110229Z 32009KT 10/02 A2982 RMK A01 T01020021  RH  057%=      5-min Rain = 0
KPD3 110230Z 32009KT 10/02 A2981 RMK A01 T01040021  RH  056%=      5-min Rain = 0
KPD3 110231Z 32009KT 11/02 A2981 RMK A01 T01060021  RH  056%=      5-min Rain = 0
KPD3 110232Z 33009KT 11/02 A2981 RMK A01 T01070021  RH  055%=      5-min Rain = 0
KPD3 110233Z 32009KT 11/02 A2981 RMK A01 T01080021  RH  055%=      5-min Rain = 0
KPD3 110234Z 33009KT 11/02 A2981 RMK A01 T01100021  RH  054%=      5-min Rain = 0
KPD3 110235Z 33009KT 11/02 A2982 RMK A01 T01110021  RH  054%=      5-min Rain = 0
KPD3 110236Z 33009KT 11/02 A2982 RMK A01 T01120021  RH  053%=      5-min Rain = 0
KPD3 110237Z 33009KT 11/02 A2982 RMK A01 T01130021  RH  053%=      5-min Rain = 0
KPD3 110238Z 33009KT 11/02 A2982 RMK A01 T01120020  RH  053%=      5-min Rain = 0
KPD3 110239Z 33009KT 11/02 A2982 RMK A01 T01120020  RH  053%=      5-min Rain = 0
KPD3 110240Z 33009KT 11/02 A2982 RMK A01 T01120020  RH  053%=      5-min Rain = 0
KPD3 110241Z 33009KT 11/02 A2982 RMK A01 T01120020  RH  053%=      5-min Rain = 0
KPD3 110242Z 33009KT 11/02 A2981 RMK A01 T01110020  RH  053%=      5-min Rain = 0
KPD3 110243Z 33010KT 11/02 A2981 RMK A01 T01120020  RH  053%=      5-min Rain = 0
KPD3 110244Z 33009KT 11/02 A2981 RMK A01 T01130020  RH  053%=      5-min Rain = 0
KPD3 110245Z 33009KT 11/02 A2981 RMK A01 T01130020  RH  053%=      5-min Rain = 0
KPD3 110246Z 33008KT 11/02 A2981 RMK A01 T01130020  RH  052%=      5-min Rain = 0
KPD3 110247Z 33008KT 11/02 A2981 RMK A01 T01140020  RH  053%=      5-min Rain = 0
KPD3 110248Z 33008KT 11/02 A2981 RMK A01 T01140020  RH  052%=      5-min Rain = 0
KPD3 110249Z 33008KT 11/02 A2981 RMK A01 T01140020  RH  052%=      5-min Rain = 0
KPD3 110250Z 34008KT 11/02 A2981 RMK A01 T01140020  RH  053%=      5-min Rain = 0
KPD3 110251Z 34008KT 11/02 A2981 RMK A01 T01130020  RH  053%=      5-min Rain = 0
KPD3 110252Z 33008KT 11/02 A2981 RMK A01 T01130020  RH  053%=      5-min Rain = 0
KPD3 110253Z 33008KT 11/02 A2981 RMK A01 T01130020  RH  053%=      5-min Rain = 0
KPD3 110254Z 33008KT 11/02 A2981 RMK A01 T01130020  RH  053%=      5-min Rain = 0
KPD3 110255Z 33008KT 11/02 A2981 RMK A01 T01130020  RH  053%=      5-min Rain = 0
KPD3 110256Z 33008KT 11/02 A2981 RMK A01 T01120020  RH  053%=      5-min Rain = 0
KPD3 110257Z 33008KT 11/02 A2981 RMK A01 T01120020  RH  053%=      5-min Rain = 0
KPD3 110258Z 33008KT 11/02 A2981 RMK A01 T01120020  RH  053%=      5-min Rain = 0
KPD3 110259Z 33007KT 11/02 A2981 RMK A01 T01120020  RH  053%=      5-min Rain = 0
KPD3 110300Z 33007KT 11/02 A2981 RMK A01 T01120020  RH  053%=      5-min Rain = 0
KPD3 110301Z 33008KT 11/02 A2981 RMK A01 T01110020  RH  053%=      5-min Rain = 0
KPD3 110302Z 33008KT 11/02 A2981 RMK A01 T01110020  RH  053%=      5-min Rain = 0
KPD3 110303Z 33008KT 11/02 A2981 RMK A01 T01100019  RH  054%=      5-min Rain = 0
KPD3 110304Z 33008KT 11/02 A2981 RMK A01 T01100020  RH  054%=      5-min Rain = 0
KPD3 110305Z 33008KT 11/02 A2981 RMK A01 T01090020  RH  054%=      5-min Rain = 0
KPD3 110306Z 33008KT 11/02 A2981 RMK A01 T01090019  RH  054%=      5-min Rain = 0
KPD3 110307Z 33007KT 11/02 A2981 RMK A01 T01090019  RH  054%=      5-min Rain = 0
KPD3 110308Z 33007KT 11/02 A2981 RMK A01 T01090019  RH  054%=      5-min Rain = 0
KPD3 110309Z 33008KT 11/02 A2981 RMK A01 T01090020  RH  054%=      5-min Rain = 0
KPD3 110310Z 33007KT 11/02 A2981 RMK A01 T01090020  RH  054%=      5-min Rain = 0
KPD3 110311Z 33007KT 11/02 A2981 RMK A01 T01110020  RH  054%=      5-min Rain = 0
KPD3 110312Z 33007KT 11/02 A2981 RMK A01 T01110020  RH  053%=      5-min Rain = 0
KPD3 110313Z 33008KT 11/02 A2981 RMK A01 T01110020  RH  053%=      5-min Rain = 0
KPD3 110314Z 33008KT 11/02 A2981 RMK A01 T01110020  RH  053%=      5-min Rain = 0
KPD3 110315Z 33008KT 11/02 A2981 RMK A01 T01110020  RH  054%=      5-min Rain = 0
KPD3 110316Z 33008KT 11/02 A2981 RMK A01 T01100020  RH  054%=      5-min Rain = 0
KPD3 110317Z 33008KT 11/02 A2981 RMK A01 T01090020  RH  054%=      5-min Rain = 0
KPD3 110318Z 33008KT 11/02 A2981 RMK A01 T01080020  RH  055%=      5-min Rain = 0
KPD3 110319Z 33008KT 11/02 A2981 RMK A01 T01070020  RH  055%=      5-min Rain = 0
KPD3 110320Z 33009KT 11/02 A2981 RMK A01 T01070020  RH  055%=      5-min Rain = 0
KPD3 110321Z 33009KT 11/02 A2981 RMK A01 T01060020  RH  055%=      5-min Rain = 0
KPD3 110322Z 33009KT 11/02 A2981 RMK A01 T01050019  RH  055%=      5-min Rain = 0
KPD3 110323Z 33008KT 11/02 A2981 RMK A01 T01050020  RH  055%=      5-min Rain = 0
KPD3 110324Z 33009KT 11/02 A2981 RMK A01 T01050020  RH  055%=      5-min Rain = 0
KPD3 110325Z 33009KT 11/02 A2981 RMK A01 T01060020  RH  055%=      5-min Rain = 0
KPD3 110326Z 33009KT 11/02 A2981 RMK A01 T01070020  RH  055%=      5-min Rain = 0
KPD3 110327Z 33009KT 11/02 A2981 RMK A01 T01080020  RH  055%=      5-min Rain = 0
KPD3 110328Z 33009KT 11/02 A2981 RMK A01 T01090020  RH  054%=      5-min Rain = 0
KPD3 110329Z 33008KT 11/02 A2981 RMK A01 T01100020  RH  054%=      5-min Rain = 0
KPD3 110330Z 33008KT 11/02 A2981 RMK A01 T01110021  RH  054%=      5-min Rain = 0
KPD3 110331Z 33008KT 11/02 A2981 RMK A01 T01110020  RH  054%=      5-min Rain = 0
KPD3 110332Z 33008KT 11/02 A2981 RMK A01 T01110021  RH  054%=      5-min Rain = 0
KPD3 110333Z 33008KT 11/02 A2981 RMK A01 T01110020  RH  054%=      5-min Rain = 0
KPD3 110334Z 33008KT 11/02 A2981 RMK A01 T01110021  RH  054%=      5-min Rain = 0
KPD3 110335Z 33008KT 11/02 A2981 RMK A01 T01110021  RH  054%=      5-min Rain = 0
KPD3 110336Z 33008KT 11/02 A2981 RMK A01 T01110021  RH  054%=      5-min Rain = 0
KPD3 110337Z 33008KT 11/02 A2981 RMK A01 T01120021  RH  054%=      5-min Rain = 0
KPD3 110338Z 33008KT 11/02 A2981 RMK A01 T01130021  RH  053%=      5-min Rain = 0
KPD3 110339Z 33008KT 11/02 A2981 RMK A01 T01140021  RH  053%=      5-min Rain = 0
KPD3 110340Z 33008KT 11/02 A2981 RMK A01 T01140022  RH  053%=      5-min Rain = 0
KPD3 110341Z 33008KT 11/02 A2981 RMK A01 T01140021  RH  053%=      5-min Rain = 0
KPD3 110342Z 33008KT 12/02 A2981 RMK A01 T01150021  RH  053%=      5-min Rain = 0
KPD3 110343Z 32007KT 12/02 A2981 RMK A01 T01150021  RH  052%=      5-min Rain = 0
KPD3 110344Z 32007KT 12/02 A2982 RMK A01 T01150021  RH  053%=      5-min Rain = 0
KPD3 110345Z 32008KT 11/02 A2982 RMK A01 T01140021  RH  053%=      5-min Rain = 0
KPD3 110346Z 32008KT 11/02 A2982 RMK A01 T01120021  RH  053%=      5-min Rain = 0
KPD3 110347Z 31007KT 11/02 A2982 RMK A01 T01100021  RH  054%=      5-min Rain = 0
KPD3 110348Z 31007KT 11/02 A2982 RMK A01 T01080021  RH  055%=      5-min Rain = 0
KPD3 110349Z 32008KT 11/02 A2982 RMK A01 T01060021  RH  055%=      5-min Rain = 0
KPD3 110350Z 32008KT 10/02 A2981 RMK A01 T01040021  RH  056%=      5-min Rain = 0
KPD3 110351Z 32009KT 10/02 A2981 RMK A01 T01020021  RH  057%=      5-min Rain = 0
KPD3 110352Z 32008KT 10/02 A2981 RMK A01 T01010021  RH  058%=      5-min Rain = 0
KPD3 110353Z 32008KT 10/02 A2981 RMK A01 T01010021  RH  058%=      5-min Rain = 0
KPD3 110354Z 32008KT 10/02 A2982 RMK A01 T01010021  RH  058%=      5-min Rain = 0
KPD3 110355Z 32008KT 10/02 A2982 RMK A01 T01010021  RH  057%=      5-min Rain = 0
KPD3 110356Z 32008KT 10/02 A2982 RMK A01 T01020021  RH  057%=      5-min Rain = 0
KPD3 110357Z 33008KT 10/02 A2981 RMK A01 T01030020  RH  057%=      5-min Rain = 0
KPD3 110358Z 33008KT 10/02 A2981 RMK A01 T01030020  RH  056%=      5-min Rain = 0
KPD3 110359Z 33007KT 10/02 A2981 RMK A01 T01040020  RH  056%=      5-min Rain = 0
KPD3 110400Z 32007KT 10/02 A2981 RMK A01 T01030020  RH  056%=      5-min Rain = 0
KPD3 110401Z 32006KT 10/02 A2981 RMK A01 T01030020  RH  056%=      5-min Rain = 0
KPD3 110402Z 32007KT 10/02 A2981 RMK A01 T01010020  RH  057%=      5-min Rain = 0
KPD3 110403Z 31007KT 10/02 A2981 RMK A01 T01000020  RH  057%=      5-min Rain = 0
KPD3 110404Z 32007KT 10/02 A2981 RMK A01 T00980019  RH  058%=      5-min Rain = 0
KPD3 110405Z 32007KT 10/02 A2981 RMK A01 T00970019  RH  058%=      5-min Rain = 0
KPD3 110406Z 31007KT 10/02 A2981 RMK A01 T00960019  RH  059%=      5-min Rain = 0
KPD3 110407Z 32007KT 10/02 A2981 RMK A01 T00950019  RH  059%=      5-min Rain = 0
KPD3 110408Z 32007KT 09/02 A2981 RMK A01 T00940019  RH  060%=      5-min Rain = 0
KPD3 110409Z 32007KT 09/02 A2982 RMK A01 T00930019  RH  060%=      5-min Rain = 0
KPD3 110410Z 32006KT 09/02 A2982 RMK A01 T00930020  RH  060%=      5-min Rain = 0
KPD3 110411Z 33006KT 09/02 A2982 RMK A01 T00930020  RH  060%=      5-min Rain = 0
KPD3 110412Z 33005KT 09/02 A2982 RMK A01 T00930020  RH  060%=      5-min Rain = 0
KPD3 110413Z 33005KT 09/02 A2982 RMK A01 T00940020  RH  060%=      5-min Rain = 0
KPD3 110414Z 33005KT 09/02 A2982 RMK A01 T00940019  RH  060%=      5-min Rain = 0
KPD3 110415Z 33005KT 09/02 A2982 RMK A01 T00940019  RH  059%=      5-min Rain = 0
KPD3 110416Z 33006KT 09/02 A2982 RMK A01 T00940019  RH  059%=      5-min Rain = 0
KPD3 110417Z 35005KT 09/02 A2982 RMK A01 T00940019  RH  059%=      5-min Rain = 0
KPD3 110418Z 00004KT 09/02 A2982 RMK A01 T00930019  RH  060%=      5-min Rain = 0
KPD3 110419Z 35005KT 09/02 A2982 RMK A01 T00920019  RH  060%=      5-min Rain = 0
KPD3 110420Z 35006KT 09/02 A2982 RMK A01 T00910018  RH  060%=      5-min Rain = 0
KPD3 110421Z 34008KT 09/02 A2982 RMK A01 T00890018  RH  061%=      5-min Rain = 0
KPD3 110422Z 33008KT 09/02 A2982 RMK A01 T00890018  RH  061%=      5-min Rain = 0
KPD3 110423Z 33009KT 09/02 A2982 RMK A01 T00920020  RH  061%=      5-min Rain = 0
KPD3 110424Z 33009KT 10/02 A2982 RMK A01 T00970022  RH  060%=      5-min Rain = 0
KPD3 110425Z 33009KT 10/02 A2982 RMK A01 T01010023  RH  058%=      5-min Rain = 0
KPD3 110426Z 33009KT 11/02 A2982 RMK A01 T01050023  RH  057%=      5-min Rain = 0
KPD3 110427Z 33010KT 11/02 A2983 RMK A01 T01070022  RH  056%=      5-min Rain = 0
KPD3 110428Z 33010KT 11/02 A2983 RMK A01 T01100022  RH  055%=      5-min Rain = 0
KPD3 110429Z 33009KT 11/02 A2983 RMK A01 T01110022  RH  054%=      5-min Rain = 0
KPD3 110430Z 33009KT 11/02 A2983 RMK A01 T01120022  RH  054%=      5-min Rain = 0
KPD3 110431Z 32009KT 11/02 A2983 RMK A01 T01110021  RH  054%=      5-min Rain = 0
KPD3 110432Z 32010KT 11/02 A2983 RMK A01 T01100021  RH  054%=      5-min Rain = 0
KPD3 110433Z 33010KT 11/02 A2983 RMK A01 T01080021  RH  055%=      5-min Rain = 0
KPD3 110434Z 32010KT 11/02 A2983 RMK A01 T01080021  RH  055%=      5-min Rain = 0
KPD3 110435Z 33010KT 11/02 A2982 RMK A01 T01080021  RH  055%=      5-min Rain = 0
KPD3 110436Z 33010KT 11/02 A2982 RMK A01 T01080021  RH  055%=      5-min Rain = 0
KPD3 110437Z 33010KT 11/02 A2982 RMK A01 T01100021  RH  054%=      5-min Rain = 0
KPD3 110438Z 33010KT 11/02 A2982 RMK A01 T01120021  RH  054%=      5-min Rain = 0
KPD3 110439Z 33009KT 11/02 A2982 RMK A01 T01140021  RH  053%=      5-min Rain = 0
KPD3 110440Z 33009KT 12/02 A2982 RMK A01 T01160022  RH  052%=      5-min Rain = 0
KPD3 110441Z 33009KT 12/02 A2982 RMK A01 T01170022  RH  052%=      5-min Rain = 0
KPD3 110442Z 33009KT 12/02 A2982 RMK A01 T01180021  RH  051%=      5-min Rain = 0
KPD3 110443Z 33009KT 12/02 A2982 RMK A01 T01180021  RH  051%=      5-min Rain = 0
KPD3 110444Z 33009KT 12/02 A2982 RMK A01 T01180020  RH  051%=      5-min Rain = 0
KPD3 110445Z 33009KT 12/02 A2982 RMK A01 T01190020  RH  051%=      5-min Rain = 0
KPD3 110446Z 33009KT 12/02 A2982 RMK A01 T01190021  RH  051%=      5-min Rain = 0
KPD3 110447Z 33009KT 12/02 A2982 RMK A01 T01180021  RH  051%=      5-min Rain = 0
KPD3 110448Z 33010KT 12/02 A2982 RMK A01 T01180021  RH  051%=      5-min Rain = 0
KPD3 110449Z 33009KT 12/02 A2982 RMK A01 T01180020  RH  051%=      5-min Rain = 0
KPD3 110450Z 33009KT 12/02 A2982 RMK A01 T01180021  RH  051%=      5-min Rain = 0
KPD3 110451Z 33009KT 12/02 A2982 RMK A01 T01170020  RH  051%=      5-min Rain = 0
KPD3 110452Z 33008KT 12/02 A2982 RMK A01 T01160020  RH  052%=      5-min Rain = 0
KPD3 110453Z 33008KT 12/02 A2983 RMK A01 T01160021  RH  052%=      5-min Rain = 0
KPD3 110454Z 33008KT 12/02 A2983 RMK A01 T01150020  RH  052%=      5-min Rain = 0
KPD3 110455Z 33008KT 12/02 A2983 RMK A01 T01150021  RH  052%=      5-min Rain = 0
KPD3 110456Z 33008KT 11/02 A2983 RMK A01 T01140021  RH  053%=      5-min Rain = 0
KPD3 110457Z 33008KT 11/02 A2983 RMK A01 T01140021  RH  053%=      5-min Rain = 0
KPD3 110458Z 33008KT 11/02 A2983 RMK A01 T01130021  RH  053%=      5-min Rain = 0
KPD3 110459Z 33008KT 11/02 A2983 RMK A01 T01130021  RH  053%=      5-min Rain = 0
KPD3 110500Z 33008KT 11/02 A2983 RMK A01 T01130021  RH  053%=      5-min Rain = 0
KPD3 110501Z 33008KT 11/02 A2983 RMK A01 T01130021  RH  053%=      5-min Rain = 0
KPD3 110502Z 33007KT 11/02 A2983 RMK A01 T01140021  RH  053%=      5-min Rain = 0
KPD3 110503Z 33007KT 12/02 A2983 RMK A01 T01150021  RH  052%=      5-min Rain = 0
KPD3 110504Z 33007KT 12/02 A2983 RMK A01 T01150021  RH  052%=      5-min Rain = 0
KPD3 110505Z 33006KT 11/02 A2983 RMK A01 T01140021  RH  053%=      5-min Rain = 0
KPD3 110506Z 32007KT 11/02 A2983 RMK A01 T01130021  RH  053%=      5-min Rain = 0
KPD3 110507Z 32007KT 11/02 A2983 RMK A01 T01120020  RH  053%=      5-min Rain = 0
KPD3 110508Z 32008KT 11/02 A2983 RMK A01 T01110021  RH  053%=      5-min Rain = 0
KPD3 110509Z 32008KT 11/02 A2983 RMK A01 T01110021  RH  054%=      5-min Rain = 0
KPD3 110510Z 32008KT 11/02 A2983 RMK A01 T01100021  RH  054%=      5-min Rain = 0
KPD3 110511Z 33009KT 11/02 A2983 RMK A01 T01100020  RH  054%=      5-min Rain = 0
KPD3 110512Z 32008KT 11/02 A2983 RMK A01 T01110020  RH  054%=      5-min Rain = 0
KPD3 110513Z 32009KT 11/02 A2983 RMK A01 T01110020  RH  053%=      5-min Rain = 0
KPD3 110514Z 32010KT 11/02 A2983 RMK A01 T01120020  RH  053%=      5-min Rain = 0
KPD3 110515Z 33011KT 11/02 A2983 RMK A01 T01130020  RH  053%=      5-min Rain = 0
KPD3 110516Z 33010KT 11/02 A2983 RMK A01 T01140019  RH  052%=      5-min Rain = 0
KPD3 110517Z 33010KT 12/02 A2983 RMK A01 T01160019  RH  051%=      5-min Rain = 0
KPD3 110518Z 33010KT 12/02 A2983 RMK A01 T01170019  RH  051%=      5-min Rain = 0
KPD3 110519Z 33011KT 12/02 A2983 RMK A01 T01170018  RH  051%=      5-min Rain = 0
KPD3 110520Z 33010KT 12/02 A2983 RMK A01 T01170018  RH  050%=      5-min Rain = 0
KPD3 110521Z 33010KT 12/02 A2983 RMK A01 T01170017  RH  050%=      5-min Rain = 0
KPD3 110522Z 33010KT 12/02 A2983 RMK A01 T01170017  RH  050%=      5-min Rain = 0
KPD3 110523Z 33010KT 12/02 A2983 RMK A01 T01170017  RH  050%=      5-min Rain = 0
KPD3 110524Z 33010KT 12/02 A2983 RMK A01 T01170016  RH  050%=      5-min Rain = 0
KPD3 110525Z 33010KT 12/02 A2983 RMK A01 T01170016  RH  050%=      5-min Rain = 0
KPD3 110526Z 33011KT 12/02 A2983 RMK A01 T01170016  RH  050%=      5-min Rain = 0
KPD3 110527Z 33010KT 12/02 A2983 RMK A01 T01170015  RH  050%=      5-min Rain = 0
KPD3 110528Z 33010KT 12/02 A2983 RMK A01 T01170015  RH  050%=      5-min Rain = 0
KPD3 110529Z 32010KT 12/02 A2983 RMK A01 T01160015  RH  050%=      5-min Rain = 0
KPD3 110530Z 32010KT 12/01 A2983 RMK A01 T01150014  RH  050%=      5-min Rain = 0
KPD3 110531Z 33010KT 12/01 A2983 RMK A01 T01150014  RH  050%=      5-min Rain = 0
KPD3 110532Z 33010KT 12/01 A2983 RMK A01 T01150014  RH  050%=      5-min Rain = 0
KPD3 110533Z 33009KT 12/01 A2983 RMK A01 T01150013  RH  049%=      5-min Rain = 0
KPD3 110534Z 33009KT 12/01 A2983 RMK A01 T01150013  RH  049%=      5-min Rain = 0
KPD3 110535Z 33008KT 12/01 A2983 RMK A01 T01150013  RH  049%=      5-min Rain = 0
KPD3 110536Z 33008KT 12/01 A2983 RMK A01 T01150012  RH  049%=      5-min Rain = 0
KPD3 110537Z 33007KT 11/01 A2983 RMK A01 T01140012  RH  049%=      5-min Rain = 0
KPD3 110538Z 33007KT 12/01 A2983 RMK A01 T01150012  RH  049%=      5-min Rain = 0
KPD3 110539Z 34006KT 12/01 A2983 RMK A01 T01150011  RH  049%=      5-min Rain = 0
KPD3 110540Z 34006KT 12/01 A2983 RMK A01 T01150011  RH  049%=      5-min Rain = 0
KPD3 110541Z 34005KT 11/01 A2983 RMK A01 T01140010  RH  049%=      5-min Rain = 0
KPD3 110542Z 34005KT 11/01 A2983 RMK A01 T01140010  RH  049%=      5-min Rain = 0
KPD3 110543Z 35005KT 11/01 A2983 RMK A01 T01140010  RH  049%=      5-min Rain = 0
KPD3 110544Z 34005KT 11/01 A2983 RMK A01 T01140009  RH  049%=      5-min Rain = 0
KPD3 110545Z 34005KT 11/01 A2983 RMK A01 T01140009  RH  048%=      5-min Rain = 0
KPD3 110546Z 34005KT 11/01 A2983 RMK A01 T01140009  RH  048%=      5-min Rain = 0
KPD3 110547Z 34005KT 11/01 A2983 RMK A01 T01140008  RH  048%=      5-min Rain = 0
KPD3 110548Z 34005KT 11/01 A2983 RMK A01 T01140008  RH  048%=      5-min Rain = 0
KPD3 110549Z 35005KT 11/01 A2983 RMK A01 T01130008  RH  048%=      5-min Rain = 0
KPD3 110550Z 35005KT 11/01 A2983 RMK A01 T01130008  RH  048%=      5-min Rain = 0
KPD3 110551Z 34005KT 11/01 A2984 RMK A01 T01120008  RH  049%=      5-min Rain = 0
KPD3 110552Z 34006KT 11/01 A2984 RMK A01 T01110008  RH  049%=      5-min Rain = 0
KPD3 110553Z 34006KT 11/01 A2983 RMK A01 T01100008  RH  049%=      5-min Rain = 0
KPD3 110554Z 34006KT 11/01 A2983 RMK A01 T01090008  RH  050%=      5-min Rain = 0
KPD3 110555Z 34006KT 11/01 A2983 RMK A01 T01080008  RH  050%=      5-min Rain = 0
KPD3 110556Z 34006KT 11/01 A2983 RMK A01 T01070008  RH  050%=      5-min Rain = 0
KPD3 110557Z 33007KT 11/01 A2983 RMK A01 T01070009  RH  051%=      5-min Rain = 0
KPD3 110558Z 33007KT 11/01 A2983 RMK A01 T01070008  RH  051%=      5-min Rain = 0
KPD3 110559Z 33007KT 11/01 A2983 RMK A01 T01070009  RH  051%=      5-min Rain = 0

Page generated in 0.0865 seconds.